Tropical Cyclones
[Index]
Main Index Home Page Stock Weather Photos Extreme Storms Discussion Storm News and Storm Chasing Reports Tropical Cyclones / Hurricanes / Typhoons Weather Data and Links Wild Fires / Bushfires Weather Observation Techniques Weather Picture Catalogue Tornado Pictures and Reports Stock Video Footage and DVDs for sale
Listing of all Tropical Cyclones from Joint Typhoon Warning Centre data
[BoM Tropical Cyclone Listing] [JTWC Tropical Cyclone Listing] [Operational Tropical Storm Listing]

The following is a list of all tropical cyclones which have occurred in the Southern Hemisphere (South Indian and South Pacific oceans) as tracked by the Joint Typhoon Warning Centre. The data is complete to the end of the 2011-2012 season and is sorted by start date. Tropical cyclone names were assigned from the 1960/61 season.

Click on a tropical cyclone name to view the track map.


   cyclone  start date     end date       latitude  longitude      min  max  cyclone
    number  yyyy-mm-dd hh  yyyy-mm-dd hh  min  max  min    max     hPa  kts  name   
=============================================================================================          
   1  4501  1945-01-09 18  1945-01-18 06  075  230  0558   0690              194501
   2  4502  1945-01-15 12  1945-01-19 00  127  231  0432   0540              194502
   3  4503  1945-01-24 06  1945-02-05 06  064  281  0552   0746              194503
   4  4504  1945-01-30 00  1945-02-02 18  140  216  1450   1546              194504
   5  4505  1945-01-30 00  1945-02-05 18  142  314  1128   1228              194505
   6  4506  1945-02-04 18  1945-02-07 06  194  239  0421   0507              194506
   7  4507  1945-02-09 00  1945-02-18 00  088  263  0453   0732              194507
   8  4508  1945-03-01 00  1945-03-07 18  139  223  1143   1224              194508
   9  4509  1945-03-04 00  1945-03-07 18  151  254  1419   1589              194509
  10  4510  1945-03-13 00  1945-03-18 18  137  158  1423   1513              194510
  11  4511  1945-03-24 00  1945-03-24 18  192  215  1123   1140              194511
  12  4512  1945-03-28 18  1945-04-08 06  076  250  0552   0774              194512
  13  4513  1945-04-09 12  1945-04-11 00  168  179  1113   1139              194513
  14  4601  1945-11-21 12  1945-11-25 00  099  131  0548   0583              194601
  15  4602  1945-11-27 06  1945-12-02 06  093  224  0549   0631              194602
  16  4603  1945-12-09 06  1945-12-15 06  106  192  0418   0603              194603
  17  4604  1945-12-28 00  1946-01-01 18  153  243  1101   1233              194604
  18  4605  1946-01-10 00  1946-01-18 00  147  316  1640W  1544W             194605
  19  4606  1946-01-13 00  1946-01-20 00  103  293  1633   1658W             194606
  20  4607  1946-01-15 06  1946-01-19 06  103  235  0582   0683              194607
  21  4608  1946-01-27 06  1946-02-02 06  127  261  0562   0603              194608
  22  4609  1946-01-29 00  1946-01-31 18  184  254  1167   1182              194609
  23  4610  1946-02-07 00  1946-02-11 18  128  176  1369   1503              194610
  24  4611  1946-02-08 00  1946-02-10 18  179  202  1129   1162              194611
  25  4612  1946-02-10 18  1946-02-16 18  213  324  0380   0491              194612
  26  4613  1946-02-24 00  1946-02-28 00  098  140  1525   1690              194613
  27  4614  1946-02-25 18  1946-03-03 06  118  188  0551   0598              194614
  28  4615  1946-02-28 00  1946-03-08 18  145  296  1460   1627              194615
  29  4616  1946-03-04 00  1946-03-08 00  179  269  1459   1619              194616
  30  4617  1946-03-11 18  1946-03-19 06  125  290  0574   0781              194617
  31  4618  1946-03-17 00  1946-03-25 00  134  270  1528   1670              194618
  32  4619  1946-03-20 00  1946-03-25 18  162  302  1507   1609              194619
  33  4620  1946-04-01 00  1946-04-04 18  150  291  1525   1593              194620
  34  4621  1946-04-09 12  1946-04-16 00  136  196  1459   1601              194621
  35  4622  1946-04-10 12  1946-04-12 00  197  211  1106   1147              194622
  36  4701  1946-11-26 18  1946-11-30 06  095  173  0466   0583              194701
  37  4702  1946-12-05 18  1946-12-12 06  063  116  0433   0705              194702
  38  4703  1946-12-17 00  1946-12-18 18  138  187  1226   1242              194703
  39  4704  1946-12-24 00  1946-12-30 00  117  318  1797W  1572W             194704
  40  4705  1946-12-26 12  1946-12-30 00  116  156  0456   0532              194705
  41  4706  1946-12-30 00  1947-01-03 18  162  246  1481   1595              194706
  42  4707  1947-01-11 00  1947-01-19 00  100  310  1615   1750              194707
  43  4708  1947-01-11 06  1947-01-18 06  124  252  0510   0633              194708
  44  4709  1947-01-17 00  1947-01-24 00  102  280  1510   1676              194709
  45  4710  1947-01-19 06  1947-01-23 06  127  275  0635   0670              194710
  46  4711  1947-01-27 06  1947-01-31 18  134  260  0621   0641              194711
  47  4712  1947-02-02 00  1947-02-11 18  127  249  1465   1518              194712
  48  4713  1947-02-04 00  1947-02-07 18  150  222  1116   1213              194713
  49  4714  1947-02-05 12  1947-02-09 00  194  231  0566   0652              194714
  50  4715  1947-02-05 12  1947-02-08 00  139  162  0417   0453              194715
  51  4716  1947-02-10 18  1947-02-18 18  163  338  0549   0698              194716
  52  4717  1947-02-10 18  1947-02-16 06  153  219  0557   0700              194717
  53  4718  1947-02-21 00  1947-02-25 00  132  273  1671   1662W             194718
  54  4719  1947-03-04 18  1947-03-11 06  152  312  0429   0619              194719
  55  4720  1947-03-09 00  1947-03-15 00  124  310  1610   1698              194720
  56  4721  1947-03-11 00  1947-03-12 18  160  182  1125   1188              194721
  57  4722  1947-03-14 12  1947-03-16 00  209  242  1526   1545              194722
  58  4723  1947-03-17 00  1947-03-18 18  149  181  1222   1231              194723
  59  4724  1947-04-03 00  1947-04-03 18  233  233  1553   1569              194724
  60  4725  1947-04-10 12  1947-04-13 00  160  194  1379   1424              194725
  61  4801  1947-12-28 00  1947-12-30 18  152  224  1187   1211              194801
  62  4802  1948-01-07 00  1948-01-07 18  114  145  1440   1462              194802
  63  4803  1948-01-10 12  1948-01-16 00  174  239  1574   1696              194803
  64  4804  1948-01-11 00  1948-01-16 18  160  235  1392   1591              194804
  65  4805  1948-01-18 06  1948-01-28 06  116  258  0547   0724              194805
  66  4806  1948-01-21 00  1948-01-25 00  080  273  1701   1780              194806
  67  4807  1948-01-24 00  1948-01-26 00  130  203  1642   1699              194807
  68  4808  1948-01-31 00  1948-01-31 12  123  126  1796   1797W             194808
  69  4809  1948-02-01 00  1948-02-06 00  130  325  1754   1736W             194809
  70  4810  1948-02-03 06  1948-02-07 06  103  214  0606   0639              194810
  71  4811  1948-02-10 06  1948-02-13 06  133  201  0639   0696              194811
  72  4812  1948-02-10 12  1948-02-14 00  148  202  1476   1489              194812
  73  4813  1948-02-12 12  1948-02-14 00  210  237  0408   0423              194813
  74  4814  1948-02-18 00  1948-02-22 18  151  306  1150   1228              194814
  75  4815  1948-02-19 12  1948-02-25 00  133  206  1672   1770W             194815
  76  4816  1948-03-09 00  1948-03-11 18  148  220  1174   1237              194816
  77  4817  1948-03-10 00  1948-03-19 00  147  278  1644   1759              194817
  78  4818  1948-03-16 12  1948-03-19 00  153  175  0387   0433              194818
  79  4819  1948-03-20 00  1948-03-26 18  121  310  1526   1635              194819
  80  4820  1948-03-20 12  1948-03-27 00  141  334  1518   1672              194820
  81  4821  1948-03-28 06  1948-03-31 06  126  231  0600   0684              194821
  82  4822  1948-04-09 00  1948-04-13 18  137  169  1189   1245              194822
  83  4823  1948-04-30 00  1948-05-01 18  222  242  1503   1530              194823
  84  4901  1948-07-10 12  1948-07-16 00  252  340  1529   1562              194901
  85  4902  1948-12-01 00  1948-12-01 18  117  125  1279   1311              194902
  86  4903  1948-12-04 12  1948-12-12 00  123  200  1760   1686W             194903
  87  4904  1948-12-14 06  1948-12-26 06  063  153  0458   0687              194904
  88  4905  1948-12-25 06  1949-01-10 06  079  273  0593   0712              194905
  89  4906  1949-01-05 06  1949-01-10 06  140  266  0577   0600              194906
  90  4907  1949-01-05 12  1949-01-09 00  130  232  0428   0472              194907
  91  4908  1949-01-09 00  1949-01-12 18  137  226  1418   1599              194908
  92  4909  1949-01-17 00  1949-01-24 00  093  300  1674   1555W             194909
  93  4910  1949-01-24 00  1949-01-29 00  176  230  1669   1717              194910
  94  4911  1949-01-30 18  1949-02-02 06  100  194  0592   0673              194911
  95  4912  1949-02-07 00  1949-02-16 18  131  282  1400   1604              194912
  96  4913  1949-02-10 12  1949-02-12 00  216  237  1123   1146              194913
  97  4914  1949-02-13 12  1949-02-18 00  189  262  1087   1137              194914
  98  4915  1949-02-14 00  1949-02-14 18  235  252  1540   1547              194915
  99  4916  1949-02-15 18  1949-02-28 06  137  369  0454   0540              194916
 100  4917  1949-02-26 00  1949-03-02 18  138  240  1434   1558              194917
 101  4918  1949-03-04 06  1949-03-09 06  127  194  0430   0558              194918
 102  4919  1949-03-13 00  1949-03-18 00  153  282  1612   1733              194919
 103  4920  1949-03-18 00  1949-03-24 18  152  223  1129   1228              194920
 104  4921  1949-03-24 12  1949-03-28 00  144  263  1574   1781W             194921
 105  4922  1949-03-29 18  1949-04-03 06  118  150  0419   0589              194922
 106  4923  1949-04-04 06  1949-04-07 06  112  141  0546   0590              194923
 107  4924  1949-04-16 06  1949-04-18 06  112  141  0556   0664              194924
 108  4925  1949-06-02 18  1949-06-06 06  209  308  0484   0600              194925
 109  4926  1949-06-09 12  1949-06-12 00  199  249  1054   1112              194926
 110  5001  1949-12-09 00  1949-12-13 00  150  292  1562   1790              195001
 111  5002  1949-12-15 00  1949-12-21 00  132  299  1766   1640W             195002
 112  5003  1950-01-05 06  1950-01-13 06  109  223  0518   0578              195003
 113  5004  1950-01-12 00  1950-01-16 18  139  213  1455   1520              195004
 114  5005  1950-01-13 00  1950-01-18 18  138  317  1389   1505              195005
 115  5006  1950-01-22 00  1950-01-27 00  160  241  1612   1650              195006
 116  5007  1950-01-26 06  1950-01-28 06  188  243  0659   0686              195007
 117  5008  1950-01-27 00  1950-01-31 18  132  207  1227   1290              195008
 118  5009  1950-01-30 12  1950-01-31 00  208  231  0373   0389              195009
 119  5010  1950-02-02 06  1950-02-07 06  096  165  0401   0679              195010
 120  5011  1950-02-10 06  1950-02-15 06  116  152  0423   0629              195011
 121  5012  1950-02-16 18  1950-02-19 06  127  237  0667   0706              195012
 122  5013  1950-02-21 00  1950-03-01 00  167  337  1760   1658W             195013
 123  5014  1950-02-24 00  1950-02-27 00  147  228  1510   1564              195014
 124  5015  1950-02-27 00  1950-03-01 18  179  196  0991   1128              195015
 125  5016  1950-02-28 00  1950-03-06 00  150  302  1772   1718W             195016
 126  5017  1950-03-04 12  1950-03-13 00  143  253  1660   1759W             195017
 127  5018  1950-03-05 00  1950-03-16 18  131  286  1368   1514              195018
 128  5019  1950-03-28 00  1950-04-01 00  143  280  1746   1798W             195019
 129  5020  1950-04-19 06  1950-04-22 06  096  193  0547   0597              195020
 130  5101  1950-08-19 00  1950-08-23 00  177  303  1674W  1586W             195101
 131  5102  1950-09-12 00  1950-09-17 00  159  342  1629   1700W             195102
 132  5103  1950-10-15 06  1950-10-21 06  083  114  0566   0748              195103
 133  5104  1950-12-01 06  1950-12-07 06  087  240  0585   0738              195104
 134  5105  1950-12-09 12  1950-12-15 18  117  200  1242   1340              195105
 135  5106  1950-12-18 06  1950-12-25 06  090  122  0417   0629              195106
 136  5107  1951-01-06 06  1951-01-09 06  171  229  0521   0603              195107
 137  5108  1951-01-08 06  1951-02-02 06  070  250  0423   0741              195108
 138  5109  1951-01-09 00  1951-01-19 18  161  230  1324   1439              195109
 139  5110  1951-01-11 06  1951-01-27 18  130  217  0360   0547              195110
 140  5111  1951-01-25 00  1951-01-29 18  231  260  1515   1552              195111
 141  5112  1951-01-31 12  1951-02-02 00  230  242  0419   0488              195112
 142  5113  1951-02-02 06  1951-02-04 00  142  160  0941   0994              195113
 143  5114  1951-02-02 06  1951-02-04 00  142  160  0941   0994              195114
 144  5115  1951-02-03 06  1951-02-07 06  110  136  0547   0620              195115
 145  5116  1951-02-06 06  1951-02-12 06  067  298  0609   0739              195116
 146  5117  1951-02-07 06  1951-02-11 00  114  238  0965   1039              195117
 147  5118  1951-02-07 06  1951-02-11 00  114  238  0965   1039              195118
 148  5119  1951-02-15 00  1951-02-18 18  164  240  1072   1194              195119
 149  5120  1951-02-15 06  1951-03-03 06  110  314  0391   0618              195120
 150  5121  1951-02-18 12  1951-02-28 00  138  342  1619   1719              195121
 151  5122  1951-02-23 00  1951-02-28 18  122  369  1618   1721              195122
 152  5123  1951-02-27 00  1951-03-04 06  157  226  1064   1194              195123
 153  5124  1951-03-10 00  1951-03-19 18  121  282  1453   1604              195124
 154  5125  1951-03-24 00  1951-03-31 18  076  225  1521   1612              195125
 155  5126  1951-04-03 06  1951-04-07 06  152  300  0512   0541              195126
 156  5201  1951-11-17 06  1951-11-30 06  057  190  0389   0732              195201
 157  5202  1951-11-26 06  1951-12-06 06  063  140  0547   0736              195202
 158  5203  1951-12-19 00  1952-01-03 00  087  303  1606   1790              195203
 159  5204  1951-12-30 06  1952-01-09 06  091  293  0420   0602              195204
 160  5205  1952-01-05 06  1952-01-17 06  088  329  0531   0729              195205
 161  5206  1952-01-11 06  1952-01-22 06  142  321  0406   0510              195206
 162  5207  1952-01-15 06  1952-01-17 06  112  150  0941   0955              195207
 163  5208  1952-01-18 00  1952-01-22 18  140  296  1128   1238              195208
 164  5209  1952-01-20 12  1952-01-27 00  070  287  1738   1679W             195209
 165  5210  1952-01-21 00  1952-01-24 18  114  203  1365   1432              195210
 166  5211  1952-01-22 12  1952-01-29 00  110  250  1580   1769W             195211
 167  5212  1952-02-03 06  1952-02-09 06  141  203  0554   0585              195212
 168  5213  1952-02-06 06  1952-02-09 06  241  252  0601   0702              195213
 169  5214  1952-02-20 06  1952-02-25 06  082  317  0568   0722              195214
 170  5215  1952-02-25 00  1952-02-26 18  188  229  1128   1148              195215
 171  5216  1952-02-26 00  1952-02-29 00  148  198  1457   1553              195216
 172  5217  1952-03-02 12  1952-03-12 00  149  290  1527   1780              195217
 173  5218  1952-03-12 06  1952-03-24 06  169  282  0401   0440              195218
 174  5219  1952-03-14 12  1952-03-19 00  156  250  0518   0553              195219
 175  5220  1952-03-18 06  1952-03-20 06  220  248  0431   0473              195220
 176  5221  1952-04-01 00  1952-04-06 00  143  199  1640   1776              195221
 177  5222  1952-04-07 06  1952-04-08 00  180  218  0960   0962              195222
 178  5223  1952-04-14 06  1952-04-16 06  081  102  0381   0445              195223
 179  5224  1952-05-10 06  1952-05-28 06  076  247  0397   0718              195224
 180  5301  1952-12-15 06  1952-12-20 06  152  240  0526   0551              195301
 181  5302  1952-12-16 00  1952-12-19 06  204  282  1549   1683              195302
 182  5303  1952-12-20 06  1952-12-21 06  228  252  0423   0476              195303
 183  5304  1953-01-02 00  1953-01-03 18  170  201  1220   1232              195304
 184  5305  1953-01-07 18  1953-01-16 06  080  191  0453   0567              195305
 185  5306  1953-01-13 00  1953-01-15 18  154  190  1365   1397              195306
 186  5307  1953-01-14 06  1953-01-21 06  189  315  0350   0423              195307
 187  5308  1953-01-18 18  1953-01-22 06  137  297  0513   0623              195308
 188  5309  1953-01-26 06  1953-01-29 00  088  124  0946   0999              195309
 189  5310  1953-01-26 06  1953-01-29 00  088  124  0946   0999              195310
 190  5311  1953-02-04 06  1953-02-10 06  084  303  0477   0559              195311
 191  5312  1953-02-18 06  1953-02-22 06  199  315  0355   0486              195312
 192  5313  1953-02-20 00  1953-02-22 18  201  258  1548   1568              195313
 193  5314  1953-03-01 00  1953-03-08 00  130  235  1615   1799W             195314
 194  5315  1953-03-02 00  1953-03-08 00  210  290  1705   1640W             195315
 195  5316  1953-03-20 00  1953-03-24 18  151  307  1134   1186              195316
 196  5317  1953-03-21 00  1953-03-22 18  235  248  1515   1530              195317
 197  5318  1953-03-22 06  1953-03-27 06  092  241  0551   0621              195318
 198  5319  1953-04-01 18  1953-04-05 06  126  235  0506   0537              195319
 199  5320  1953-04-10 18  1953-04-14 06  092  229  0541   0623              195320
 200  5321  1953-04-15 00  1953-04-15 18  108  109  1386   1415              195321
 201  5322  1953-04-17 00  1953-04-21 18  103  210  1189   1327              195322
 202  5323  1953-04-27 06  1953-05-01 06  086  239  0849   0963              195323
 203  5401  1953-12-27 18  1954-01-01 06  114  208  0433   0556              195401
 204  5402  1954-01-03 00  1954-01-08 18  132  338  1426   1626              195402
 205  5403  1954-01-08 06  1954-01-22 06  098  320  0540   0744              195403
 206  5404  1954-01-12 00  1954-01-16 00  142  208  1750   1760W             195404
 207  5405  1954-01-17 06  1954-01-23 06  180  235  0413   0457              195405
 208  5406  1954-01-25 00  1954-01-31 00  159  357  1590   1651              195406
 209  5407  1954-02-05 00  1954-02-08 18  142  224  1463   1492              195407
 210  5408  1954-02-12 12  1954-02-22 00  107  360  1502   1777              195408
 211  5409  1954-02-25 18  1954-03-07 06  104  261  0460   0610              195409
 212  5410  1954-02-27 18  1954-03-04 06  140  236  0407   0498              195410
 213  5411  1954-03-01 12  1954-03-05 00  183  293  1509   1663              195411
 214  5412  1954-03-10 12  1954-03-12 00  127  210  1634   1712              195412
 215  5413  1954-03-26 18  1954-03-31 06  081  133  0472   0608              195413
 216  5414  1954-04-08 06  1954-04-13 06  106  157  0665   0758              195414
 217  5501  1954-07-20 06  1954-07-29 06  063  124  0502   0892              195501
 218  5502  1954-10-11 06  1954-10-20 06  071  094  0489   0756              195502
 219  5503  1954-11-04 18  1954-11-08 06  120  136  0532   0671              195503
 220  5504  1954-12-20 00  1954-12-21 18  125  159  1551   1594              195504
 221  5505  1954-12-30 00  1955-01-01 06  162  246  1157   1206              195505
 222  5506  1955-01-01 00  1955-01-15 00  126  300  1626   1756              195506
 223  5507  1955-01-05 12  1955-01-14 00  162  263  1637W  1574W             195507
 224  5508  1955-01-10 00  1955-01-10 18  111  116  1422   1422              195508
 225  5509  1955-01-12 00  1955-01-15 18  152  290  1190   1219              195509
 226  5510  1955-01-22 12  1955-01-28 00  100  198  1680   1777W             195510
 227  5511  1955-01-24 18  1955-01-28 06  077  185  0712   0822              195511
 228  5512  1955-02-07 06  1955-02-10 06  117  174  0880   0946              195512
 229  5513  1955-02-08 18  1955-02-16 06  140  278  0646   0684              195513
 230  5514  1955-02-13 00  1955-02-14 18  171  231  1083   1129              195514
 231  5515  1955-02-18 00  1955-02-24 18  141  234  0980   1334              195515
 232  5516  1955-02-18 00  1955-02-24 18  141  234  0980   1334              195516
 233  5517  1955-02-23 06  1955-03-04 06  097  276  0535   0571              195517
 234  5518  1955-02-24 12  1955-03-09 00  139  237  1456   1770              195518
 235  5519  1955-03-01 12  1955-03-17 18  151  232  1399   1660              195519
 236  5520  1955-03-05 12  1955-03-15 00  174  430  1681   1756W             195520
 237  5521  1955-03-08 18  1955-03-14 06  123  316  0546   0663              195521
 238  5522  1955-03-23 12  1955-04-07 00  120  371  1475   1687              195522
 239  5523  1955-03-24 06  1955-03-28 06  113  183  0417   0446              195523
 240  5524  1955-03-28 06  1955-04-01 06  170  206  0538   0649              195524
 241  5525  1955-04-09 12  1955-04-16 00  217  377  1602   1682              195525
 242  5526  1955-04-14 06  1955-04-22 06  073  187  0774   0926              195526
 243  5601  1955-11-12 06  1955-11-18 00  117  219  1189   1237              195601
 244  5602  1955-12-08 12  1955-12-15 18  267  357  1489   1643              195602
 245  5603  1955-12-09 00  1955-12-10 18  171  181  1168   1181              195603
 246  5604  1955-12-20 18  1955-12-25 06  105  212  0740   0816              195604
 247  5605  1955-12-24 12  1955-12-30 00  115  298  1584   1715              195605
 248  5606  1956-01-01 00  1956-01-04 00  174  238  1710W  1607W             195606
 249  5607  1956-01-04 06  1956-01-07 06  105  188  0814   0951              195607
 250  5608  1956-01-07 06  1956-01-12 06  193  236  0418   0552              195608
 251  5609  1956-01-15 00  1956-01-24 18  122  342  0976   1280              195609
 252  5610  1956-01-16 00  1956-01-17 18  180  198  1530   1548          35  195610
 253  5611  1956-01-17 00  1956-01-28 18  169  356  1397   1632              195611
 254  5612  1956-01-19 06  1956-01-31 06  135  297  0361   0630              195612
 255  5613  1956-01-20 12  1956-01-29 00  172  386  1483   1655              195613
 256  5614  1956-01-21 00  1956-01-26 00  211  282  1604   1654              195614
 257  5615  1956-01-28 00  1956-02-05 18  102  231  1031   1220              195615
 258  5616  1956-01-29 06  1956-02-04 00  136  361  1694   1766          45  195616
 259  5617  1956-02-01 00  1956-02-07 18  118  191  1202   1344              195617
 260  5618  1956-02-02 06  1956-02-08 06  140  221  0422   0568              195618
 261  5619  1956-02-05 12  1956-02-10 18  150  436  1434   1599              195619
 262  5620  1956-02-10 06  1956-02-13 06  179  292  0403   0433              195620
 263  5621  1956-02-14 12  1956-02-18 18  143  316  1467   1559              195621
 264  5622  1956-02-16 00  1956-03-01 18  150  285  1122   1330              195622
 265  5623  1956-02-20 18  1956-02-28 06  115  250  0423   0652              195623
 266  5624  1956-02-24 00  1956-03-12 00  167  287  1412   1749              195624
 267  5625  1956-03-02 12  1956-03-11 00  178  412  1707   1790W             195625
 268  5626  1956-03-12 18  1956-03-18 12  206  397  1576   1689          45  195626
 269  5627  1956-03-16 12  1956-03-23 00  134  243  0444   0565              195627
 270  5628  1956-03-24 12  1956-03-31 18  116  419  1333   1479          50  195628
 271  5629  1956-03-26 06  1956-04-04 06  094  149  0406   0618              195629
 272  5630  1956-03-26 18  1956-04-02 06  083  225  0751   0863              195630
 273  5631  1956-03-27 00  1956-03-28 18  175  192  1486   1505          20  195631
 274  5632  1956-03-29 12  1956-04-04 00  131  145  0413   0572              195632
 275  5633  1956-04-05 12  1956-04-10 00  176  346  1615   1767W             195633
 276  5634  1956-04-06 12  1956-04-09 06  201  322  1653   1760          40  195634
 277  5635  1956-04-30 00  1956-04-30 18  186  195  1076   1078              195635
 278  5701  1956-08-26 18  1956-08-30 12  105  249  0953   1131          30  195701
 279  5702  1956-08-26 18  1956-08-30 12  105  249  0953   1131          30  195702
 280  5703  1956-10-27 18  1956-10-31 12  098  179  0929   0977          25  195703
 281  5704  1956-10-28 06  1956-10-31 06  110  173  0890   0960              195704
 282  5705  1956-11-11 06  1956-11-18 12  121  325  1565   1753W         45  195705
 283  5706  1956-11-17 06  1956-11-19 12  120  142  1660   1687          40  195706
 284  5707  1956-12-16 12  1956-12-21 18  106  199  1334   1447              195707
 285  5708  1956-12-20 00  1956-12-26 00  171  293  1412   1658              195708
 286  5709  1956-12-22 12  1956-12-24 18  222  264  1521   1629              195709
 287  5710  1957-01-02 00  1957-01-12 00  142  337  1436   1740W             195710
 288  5711  1957-01-07 12  1957-01-15 00  180  223  1323   1787              195711
 289  5712  1957-01-13 06  1957-01-17 06  130  267  0381   0422              195712
 290  5713  1957-01-15 18  1957-01-22 12  113  244  1576   1630          30  195713
 291  5714  1957-01-15 18  1957-01-21 12  105  169  1121   1272          25  195714
 292  5715  1957-01-17 06  1957-01-26 06  088  310  0608   0671              195715
 293  5716  1957-01-25 18  1957-02-08 12  090  209  0921   1053          55  195716
 294  5717  1957-01-26 18  1957-02-01 06  097  209  0914   0949              195717
 295  5718  1957-02-02 00  1957-02-20 00  130  338  1456   1605              195718
 296  5719  1957-02-03 06  1957-02-11 06  153  333  0418   0691              195719
 297  5720  1957-02-03 12  1957-02-10 00  112  300  1710W  1647W             195720
 298  5721  1957-02-10 00  1957-02-17 18  121  317  1160   1231              195721
 299  5722  1957-02-21 12  1957-03-01 00  109  271  1788   1775W             195722
 300  5723  1957-02-24 18  1957-02-28 18  140  284  1773   1760W         50  195723
 301  5724  1957-03-03 18  1957-03-10 12  110  184  1270   1393          25  195724
 302  5725  1957-03-04 00  1957-03-08 18  099  160  1284   1336              195725
 303  5726  1957-03-13 06  1957-03-17 06  203  305  0512   0612              195726
 304  5727  1957-03-13 06  1957-03-15 06  211  268  0420   0569              195727
 305  5728  1957-03-23 00  1957-03-29 18  149  191  1016   1175              195728
 306  5729  1957-03-26 12  1957-04-01 00  117  290  1602   1744W             195729
 307  5730  1957-04-06 12  1957-04-11 18  094  117  1344   1415              195730
 308  5801  1957-11-07 06  1957-11-19 06  035  151  1690   1780W         30  195801
 309  5802  1957-12-01 00  1957-12-08 00  109  216  1778W  1728W             195802
 310  5803  1957-12-13 12  1957-12-16 00  175  223  0378   0436              195803
 311  5804  1957-12-24 12  1957-12-31 00  133  157  0400   0562              195804
 312  5805  1958-01-01 00  1958-01-08 12  083  275  1765   1753W         75  195805
 313  5806  1958-01-11 06  1958-01-16 12  111  170  1213   1374          30  195806
 314  5807  1958-01-13 18  1958-01-18 12  141  191  1595   1623          25  195807
 315  5808  1958-01-15 00  1958-01-21 18  146  246  1161   1217              195808
 316  5809  1958-01-16 06  1958-01-20 06  182  247  0595   0779              195809
 317  5810  1958-01-22 06  1958-01-24 06  206  263  0500   0630              195810
 318  5811  1958-01-23 06  1958-01-29 06  200  216  0360   0422              195811
 319  5812  1958-01-31 06  1958-02-03 06  164  267  0578   0721              195812
 320  5813  1958-02-07 18  1958-02-15 00  083  179  0876   1010          35  195813
 321  5814  1958-02-07 18  1958-02-13 06  080  174  0879   0934              195814
 322  5815  1958-02-12 12  1958-02-24 18  129  208  1385   1586              195815
 323  5816  1958-02-13 00  1958-02-15 18  141  177  1061   1077              195816
 324  5817  1958-02-23 18  1958-02-28 06  156  206  0417   0458              195817
 325  5818  1958-02-23 18  1958-02-28 06  114  267  0643   0680              195818
 326  5819  1958-03-02 18  1958-03-09 06  136  226  0487   0571              195819
 327  5820  1958-03-03 00  1958-03-06 18  161  242  1130   1177              195820
 328  5821  1958-03-04 06  1958-03-09 06  118  273  0659   0720              195821
 329  5822  1958-03-11 06  1958-03-19 12  120  229  1729   1772          35  195822
 330  5823  1958-03-14 00  1958-03-17 18  189  269  1136   1254              195823
 331  5824  1958-03-14 06  1958-03-22 06  123  317  0535   0599              195824
 332  5825  1958-03-29 06  1958-03-31 06  082  142  0945   0967              195825
 333  5826  1958-03-31 06  1958-04-03 00  174  204  1456   1508          70  195826
 334  5827  1958-04-02 12  1958-04-09 18  095  169  1556   1780W             195827
 335  5828  1958-04-04 18  1958-04-10 06  118  275  0525   0667              195828
 336  5829  1958-04-09 06  1958-04-09 12  126  131  1527   1530          30  195829
 337  5830  1958-04-12 00  1958-04-15 18  099  148  1353   1393              195830
 338  5831  1958-04-18 00  1958-04-23 18  121  215  1539   1609              195831
 339  5832  1958-06-05 12  1958-06-15 00  072  349  1566   1770W             195832
 340  5833  1958-06-19 00  1958-06-22 06  270  331  1550   1656          45  195833
 341  5901  1958-10-08 06  1958-10-11 06  071  175  0857   0918              195901
 342  5902  1958-11-16 06  1958-11-21 06  079  199  0909   0994              195902
 343  5903  1958-11-16 18  1958-11-22 12  060  209  0901   0990          35  195903
 344  5904  1958-11-27 12  1958-12-03 06  089  213  1767   1774W         70  195904
 345  5905  1958-12-18 06  1958-12-21 06  220  326  0434   0490              195905
 346  5906  1958-12-30 00  1959-01-04 18  124  148  0974   1076              195906
 347  5907  1958-12-30 00  1959-01-04 18  124  148  0974   1076              195907
 348  5908  1959-01-04 12  1959-01-05 18  145  151  1012   1053              195908
 349  5909  1959-01-05 00  1959-01-22 18  131  216  1232   1614              195909
 350  5910  1959-01-12 06  1959-01-15 06  200  265  0403   0464              195910
 351  5911  1959-01-15 00  1959-01-21 18  136  286  1508   1680              195911
 352  5912  1959-01-24 00  1959-01-30 00  188  363  1660   1775              195912
 353  5913  1959-01-24 12  1959-01-26 00  097  134  0418   0500              195913
 354  5914  1959-01-26 18  1959-01-31 06  098  206  0590   0620              195914
 355  5915  1959-02-06 18  1959-02-10 06  083  190  0900   0990              195915
 356  5916  1959-02-07 18  1959-02-11 12  100  140  0958   0996          25  195916
 357  5917  1959-02-09 06  1959-02-15 06  133  296  0593   0636              195917
 358  5918  1959-02-09 12  1959-02-15 00  098  240  1717W  1522W             195918
 359  5919  1959-02-11 12  1959-02-18 18  157  330  1473   1567              195919
 360  5920  1959-02-12 12  1959-02-16 00  100  253  1767W  1669W             195920
 361  5921  1959-02-14 06  1959-02-27 06  127  326  0432   0680              195921
 362  5922  1959-02-22 12  1959-03-02 00  078  302  1727W  1619W             195922
 363  5923  1959-03-01 06  1959-03-09 06  122  314  0532   0601              195923
 364  5924  1959-03-05 00  1959-03-10 18  127  291  1007   1077              195924
 365  5925  1959-03-05 12  1959-03-17 00  099  373  1581   1720              195925
 366  5926  1959-03-13 06  1959-03-24 06  126  214  0478   0650              195926
 367  5927  1959-03-17 00  1959-03-21 18  118  226  1049   1146              195927
 368  5928  1959-03-22 06  1959-04-07 06  123  335  0467   0640              195928
 369  5929  1959-04-03 00  1959-04-11 18  098  197  1167   1348              195929
 370  5930  1959-04-18 18  1959-04-23 06  117  247  0640   0758              195930
 371  6001  1959-10-29 18  1959-11-04 06  072  156  0472   0662              196001
 372  6002  1959-11-20 18  1959-11-26 06  059  123  0774   0883              196002
 373  6003  1959-12-01 12  1959-12-10 00  101  136  0400   0650              196003
 374  6004  1959-12-19 12  1959-12-27 18  058  179  1554   1647              196004
 375  6005  1959-12-22 12  1959-12-31 00  079  312  1566   1704W             196005
 376  6006  1959-12-24 12  1960-01-03 00  123  252  1334   1778              196006
 377  6007  1959-12-26 06  1960-01-03 06  130  272  0516   0719              196007
 378  6008  1960-01-11 18  1960-01-22 06  123  348  0564   0810              196008
 379  6009  1960-01-15 12  1960-01-20 00  122  279  1792   1667W             196009
 380  6010  1960-01-23 00  1960-01-29 18  129  200  1128   1254              196010
 381  6011  1960-01-28 12  1960-01-31 00  172  204  0379   0426              196011
 382  6012  1960-02-01 12  1960-02-04 00  159  284  1726   1785W             196012
 383  6013  1960-02-20 06  1960-03-02 06  103  352  0573   0726              196013
 384  6014  1960-02-25 12  1960-02-29 12  155  215  1547   1602              196014
 385  6015  1960-03-01 00  1960-03-08 00  229  397  1557   1646              196015
 386  6016  1960-03-04 00  1960-03-08 18  126  183  1473   1545              196016
 387  6017  1960-03-15 00  1960-03-27 18  120  346  1139   1488              196017
 388  6018  1960-03-17 00  1960-03-23 00  145  309  1781W  1690W             196018
 389  6019  1960-03-19 18  1960-03-27 12  120  327  1134   1440          55  196019
 390  6020  1960-03-21 18  1960-03-27 06  182  311  0420   0657              196020
 391  6021  1960-03-30 18  1960-04-07 06  096  347  0716   0851              196021
 392  6022  1960-04-01 12  1960-04-13 00  134  393  1789   1571W             196022
 393  6023  1960-04-21 00  1960-04-26 18  090  130  1225   1289              196023
 394  6024  1960-05-24 12  1960-05-29 00  169  346  1521   1626              196024
 395  6101  1960-07-15 00  1960-07-21 00  050  374  0925   1130              196101
 396  6102  1960-07-15 00  1960-07-21 00  050  374  0925   1130              196102
 397  6103  1960-11-11 06  1960-11-14 06  113  125  0670   0827              ANNA
 398  6104  1960-11-29 00  1960-11-30 00  111  120  0823   0870              196104
 399  6105  1960-11-29 06  1960-12-03 06  101  152  0776   0851              BARBARA
 400  6106  1960-12-15 00  1960-12-23 18  079  167  1208   1309              196106
 401  6107  1960-12-28 18  1961-01-02 12  070  159  0940   0968              196107
 402  6108  1960-12-28 18  1961-01-02 12  070  159  0940   0968              196108
 403  6109  1960-12-31 18  1961-01-03 06  125  163  0913   0978              196109
 404  6110  1961-01-01 06  1961-01-06 06  181  248  0386   0422              CLARA
 405  6111  1961-01-04 00  1961-01-07 18  186  220  1466   1534              196111
 406  6112  1961-01-06 00  1961-01-24 00  114  420  1599   1744W             BARBARINE
 407  6113  1961-01-17 00  1961-01-28 18  097  309  1143   1351              196113
 408  6114  1961-01-23 18  1961-02-02 06  100  234  0573   0743              DORIS
 409  6115  1961-01-29 00  1961-02-05 18  142  389  1576   1698              196115
 410  6116  1961-02-02 12  1961-02-11 00  128  272  1602   1797              CATHERINE
 411  6117  1961-02-07 06  1961-02-10 06  130  150  0670   0704              EVA
 412  6118  1961-02-10 00  1961-02-14 18  141  233  1102   1190              196118
 413  6119  1961-02-11 18  1961-02-16 12  090  185  0970   0990          30  196119
 414  6120  1961-02-20 18  1961-03-01 12  120  140  0950   1050          30  196120
 415  6121  1961-02-22 00  1961-03-04 18  120  347  1079   1162              196121
 416  6122  1961-02-22 00  1961-03-04 18  079  245  1133   1330              196122
 417  6123  1961-03-02 12  1961-03-07 18  110  192  1379   1612              196123
 418  6124  1961-03-10 12  1961-03-13 00  125  134  1650W  1594W             196124
 419  6125  1961-03-11 12  1961-03-19 00  137  253  1563W  1511W             196125
 420  6126  1961-03-12 00  1961-03-20 00  130  291  1743W  1600W             196126
 421  6127  1961-03-15 12  1961-03-24 00  130  444  1591   1718              ISIS
 422  6201  1961-11-29 00  1961-12-10 00  128  340  1596   1798              196201
 423  6202  1961-12-19 18  1961-12-24 06  126  223  0416   0460              ADA
 424  6203  1961-12-21 18  1961-12-28 06  171  271  0535   0574              BERYL
 425  6204  1961-12-22 12  1961-12-25 06  160  245  1486   1580              196204
 426  6205  1961-12-29 18  1962-01-05 06  103  267  0561   0660              CHANTAL
 427  6206  1962-01-08 12  1962-01-15 18  139  201  1149   1269              196206
 428  6207  1962-01-15 06  1962-01-23 06  122  198  0357   0640              DAISY
 429  6208  1962-01-19 06  1962-01-21 06  073  084  0861   0869              196208
 430  6209  1962-01-20 18  1962-01-25 06  073  173  0580   0682              FLORA
 431  6210  1962-01-22 00  1962-02-01 18  121  262  1051   1231              196210
 432  6211  1962-01-29 00  1962-02-12 18  120  249  1022   1293              196211
 433  6212  1962-02-05 06  1962-02-19 06  153  342  0330   0642              GINA
 434  6213  1962-02-08 12  1962-02-13 00  164  205  1636   1796              196213
 435  6214  1962-02-11 00  1962-02-22 18  172  203  1049   1281              196214
 436  6215  1962-02-13 12  1962-02-18 00  144  263  1680   1733W             196215
 437  6216  1962-02-14 12  1962-02-18 00  168  280  1638W  1555W             196216
 438  6217  1962-02-15 18  1962-02-20 06  123  211  0512   0568              HELENE
 439  6218  1962-02-17 00  1962-02-19 00  165  258  1691W  1609W             196218
 440  6219  1962-02-17 00  1962-02-18 18  128  143  1377   1410              196219
 441  6220  1962-02-22 06  1962-02-25 06  256  346  0482   0670              ISOBEL
 442  6221  1962-02-26 00  1962-03-03 00  172  398  1636   1748              196221
 443  6222  1962-02-26 18  1962-03-04 06  159  290  0513   0675              JENNY
 444  6223  1962-03-01 18  1962-03-05 12  150  160  0941   1010          25  196223
 445  6224  1962-03-10 06  1962-03-15 06  154  194  0366   0542              KATE
 446  6225  1962-03-18 06  1962-03-20 06  144  172  0597   0681              LUCY
 447  6226  1962-04-01 06  1962-04-09 06  098  306  0623   0830              MAUD
 448  6301  1962-10-06 00  1962-10-16 00  080  190  0512   0870          40  AMY
 449  6302  1962-10-08 18  1962-10-16 06  113  196  0512   0780              196302
 450  6303  1962-11-10 00  1962-11-15 00  199  346  1662   1735W             196303
 451  6304  1962-12-01 18  1962-12-06 06  137  288  0585   0633              BERTHA
 452  6305  1962-12-16 00  1962-12-29 00  040  288  0600   0890          35  CECILE
 453  6306  1962-12-16 00  1962-12-29 00  040  288  0600   0890          35  196306
 454  6307  1962-12-21 00  1962-12-26 00  164  378  1750W  1532W             196307
 455  6308  1962-12-23 18  1962-12-27 12  165  183  1505   1602          30  196308
 456  6309  1962-12-29 12  1962-12-31 18  172  253  1499   1548              ANNIE
 457  6310  1962-12-30 12  1963-01-01 18  228  265  1530   1552          55  196310
 458  6311  1963-01-01 00  1963-01-11 00  100  356  0699   0827          40  196311
 459  6312  1963-01-01 06  1963-01-11 00  101  357  0691   0830              196312
 460  6313  1963-01-07 00  1963-01-14 18  120  279  1036   1170              196313
 461  6314  1963-01-09 00  1963-01-17 00  100  218  0493   0830          70  DELIA
 462  6315  1963-01-10 18  1963-01-19 06  085  299  0488   0725              196315
 463  6316  1963-01-12 18  1963-01-14 12  136  191  1481   1499          20  196316
 464  6317  1963-01-13 12  1963-01-19 00  169  329  1610   1743W             196317
 465  6318  1963-01-17 12  1963-01-22 00  171  300  1650   1700W             196318
 466  6319  1963-01-19 00  1963-01-29 18  128  291  1110   1239              196319
 467  6320  1963-01-21 00  1963-01-23 18  112  159  1007   1045              196320
 468  6321  1963-01-21 12  1963-01-24 00  168  230  1570   1611              196321
 469  6322  1963-01-23 00  1963-01-25 18  152  221  1551   1609              196322
 470  6323  1963-01-28 00  1963-01-28 18  190  202  1492   1515              196323
 471  6324  1963-01-29 06  1963-02-04 00  092  179  0793   0913              196324
 472  6325  1963-01-29 12  1963-02-04 00  169  328  1649   1719              196325
 473  6326  1963-02-02 18  1963-02-09 06  136  276  0642   0872              EMMA
 474  6327  1963-02-03 00  1963-02-09 18  183  290  1149   1258              196327
 475  6328  1963-02-03 12  1963-02-09 00  170  418  1510   1736              196328
 476  6329  1963-02-09 18  1963-02-19 06  125  192  0393   0618              FANNY
 477  6330  1963-02-12 00  1963-02-16 18  159  249  1063   1231              196330
 478  6331  1963-02-13 06  1963-02-22 06  109  338  0609   0700              GRACE
 479  6332  1963-02-15 18  1963-02-18 12  130  222  1136   1281          45  196332
 480  6333  1963-02-16 00  1963-02-21 06  150  429  1555   1717              196333
 481  6334  1963-02-27 06  1963-03-02 06  228  345  0411   0471              HILDA
 482  6335  1963-03-01 12  1963-03-08 00  160  422  1611   1774W             196335
 483  6336  1963-03-03 18  1963-03-05 06  130  141  0515   0590              IRENE
 484  6337  1963-03-04 18  1963-03-11 06  122  279  0650   0703              JULIE
 485  6338  1963-03-07 12  1963-03-17 00  160  294  1764W  1509W             196338
 486  6339  1963-03-14 18  1963-03-16 00  225  252  1525   1537          20  196339
 487  6340  1963-03-14 18  1963-03-23 12  100  230  0920   1010          45  196340
 488  6341  1963-03-15 06  1963-03-24 00  103  229  0918   1010              196341
 489  6342  1963-03-22 06  1963-03-25 00  150  189  1472   1531          15  196342
 490  6343  1963-03-25 06  1963-03-26 00  122  150  1390   1408          30  196343
 491  6344  1963-03-26 12  1963-03-29 18  102  205  1378   1433              196344
 492  6345  1963-03-30 12  1963-04-06 00  191  276  1520   1780W             196345
 493  6346  1963-04-10 12  1963-04-14 18  112  148  1322   1371              196346
 494  6347  1963-04-14 00  1963-04-17 00  186  459  1683   1750W             196347
 495  6348  1963-04-20 12  1963-04-26 18  121  280  1530   1621              196348
 496  6349  1963-05-03 00  1963-05-08 18  130  297  1529   1627          45  196349
 497  6350  1963-05-06 00  1963-05-07 18  260  314  1522   1528          40  196350
 498  6351  1963-05-07 06  1963-05-08 00  255  298  1530   1536          45  196351
 499  6352  1963-05-08 12  1963-05-13 18  131  239  1581   1655          35  196352
 500  6353  1963-05-10 06  1963-05-12 00  206  231  1638   1664          20  196353
 501  6354  1963-06-22 06  1963-06-24 12  155  241  1545   1675          25  196354
 502  6355  1963-06-23 00  1963-07-03 18  191  361  1584   1688          50  196355
 503  6401  1963-11-14 00  1963-11-23 00  100  237  1690   1798              196401
 504  6402  1963-12-05 18  1963-12-14 06  053  309  0620   0734              AMANDA
 505  6403  1963-12-17 00  1963-12-22 00  114  263  1715   1694W             196403
 506  6404  1963-12-23 06  1963-12-28 06  082  299  0565   0720              BETTY
 507  6405  1964-01-04 00  1964-01-11 18  138  207  1210   1253              BESSIE
 508  6406  1964-01-04 00  1964-01-08 00  148  240  1681W  1573W             196406
 509  6407  1964-01-06 00  1964-01-16 00  108  439  1369   1760              AUDREY
 510  6408  1964-01-10 18  1964-01-16 06  191  310  0396   0630              CHRISTINE
 511  6409  1964-01-15 06  1964-01-22 06  132  346  0564   0643              DANIELLE
 512  6410  1964-01-20 00  1964-01-28 00  133  229  1776W  1678W             196410
 513  6411  1964-01-24 00  1964-01-26 00  163  241  1716W  1644W             196411
 514  6412  1964-01-27 00  1964-02-01 18  141  240  1514   1622              BERTHA
 515  6413  1964-01-28 00  1964-02-11 18  092  200  1313   1567          25  DORA
 516  6414  1964-01-29 06  1964-02-10 06  119  293  0491   0656              EILEEN
 517  6415  1964-02-12 12  1964-02-19 00  130  207  1717   1766              196415
 518  6416  1964-02-18 00  1964-02-25 00  124  250  1652   1746W             EDITH
 519  6417  1964-02-19 18  1964-02-24 06  112  180  0490   0573              FRANCES
 520  6418  1964-02-22 18  1964-03-04 06  090  257  0394   0730              GISELLE
 521  6419  1964-02-24 18  1964-03-01 12  050  324  0884   1012          40  EVA
 522  6420  1964-02-24 18  1964-03-01 12  050  324  0884   1012          40  196420
 523  6421  1964-02-26 12  1964-03-10 00  132  264  1501   1689              196421
 524  6422  1964-03-04 06  1964-03-17 06  135  372  0377   0637              HARRIET
 525  6423  1964-03-06 18  1964-03-16 12  130  278  0910   1060          65  HAZEL
 526  6424  1964-03-06 18  1964-03-16 12  130  278  0910   1060          65  196424
 527  6425  1964-03-07 00  1964-03-10 18  097  146  1298   1369              CARMEN
 528  6426  1964-03-13 00  1964-03-15 00  160  190  1540   1612              196426
 529  6427  1964-03-14 00  1964-03-23 00  151  207  1482   1710              GERTIE
 530  6428  1964-03-25 00  1964-04-02 18  126  329  1121   1288              KATIE
 531  6429  1964-03-28 12  1964-04-10 00  111  357  1589   1782              HENRIETTA
 532  6430  1964-03-30 06  1964-04-03 06  127  331  0697   0729              INGRID
 533  6431  1964-04-02 00  1964-04-06 00  102  156  0703   0822          15  NORMA
 534  6432  1964-04-18 00  1964-04-20 12  203  233  1609   1771              196432
 535  6433  1964-04-20 12  1964-04-21 00  220  239  1770W  1726W             196433
 536  6434  1964-04-29 06  1964-05-03 06  134  158  0612   0694              JOSE
 537  6435  1964-05-02 18  1964-05-10 06  107  167  0664   0888              KAREN
 538  6501  1964-11-01 18  1964-11-11 12  090  150  1050   1183          35  RITA
 539  6502  1964-11-17 12  1964-11-18 00  190  220  1636   1640              196502
 540  6503  1964-11-20 00  1964-11-27 00  125  227  1764   1628W             196503
 541  6504  1964-11-30 18  1964-12-08 12  104  195  1317   1515          65  FLORA
 542  6505  1964-12-04 06  1964-12-08 06  116  262  0581   0611              ARLETTE
 543  6506  1964-12-04 12  1964-12-07 12  118  220  1765   1720W             196506
 544  6507  1964-12-07 06  1964-12-10 06  123  190  0600   0705              BESSIE
 545  6508  1964-12-18 18  1964-12-21 06  257  338  0360   0514              CONNIE
 546  6509  1964-12-20 00  1964-12-22 00  130  237  1750   1798W             196509
 547  6510  1964-12-23 06  1964-12-28 06  109  271  0740   0830              EDNA
 548  6511  1964-12-23 12  1964-12-28 12  094  250  0700   0873          45  196511
 549  6512  1964-12-23 18  1964-12-25 06  223  226  0413   0439              DOREEN
 550  6513  1965-01-04 00  1965-01-05 18  130  131  1027   1100              UNA
 551  6514  1965-01-05 06  1965-01-10 06  109  336  0565   0700              FREDA
 552  6515  1965-01-06 06  1965-01-08 06  181  222  0410   0437              GINETTE
 553  6516  1965-01-13 00  1965-01-20 18  119  176  1403   1551              196516
 554  6517  1965-01-14 00  1965-01-17 00  154  250  1687   1798W             196517
 555  6518  1965-01-15 06  1965-01-16 06  175  180  0430   0445              HAZEL
 556  6519  1965-01-17 18  1965-01-28 06  150  319  0460   0560              IRIS
 557  6520  1965-01-24 00  1965-01-25 12  138  214  1600W  1538W             196520
 558  6521  1965-01-26 00  1965-02-04 18  118  304  1330   1608              JUDY1
 559  6522  1965-02-06 06  1965-02-09 06  142  200  0485   0597              JUDY2
 560  6523  1965-02-10 06  1965-02-18 06  099  283  0570   0759              KATHLEEN
 561  6524  1965-02-14 12  1965-02-26 12  070  270  0811   0908          40  ANNIE
 562  6525  1965-02-14 12  1965-02-26 12  070  270  0811   0908          40  MAUREEN
 563  6526  1965-02-18 00  1965-02-22 12  143  184  1574   1614              196526
 564  6527  1965-02-18 06  1965-02-21 06  127  168  0788   0860              196527
 565  6528  1965-02-20 06  1965-02-26 06  188  348  0395   0418              LESLEY
 566  6529  1965-02-22 00  1965-02-27 18  110  120  1314   1376              MARIE
 567  6530  1965-02-23 06  1965-02-24 06  036  056  0508   0557              196530
 568  6531  1965-02-24 00  1965-02-25 12  188  205  1611   1633              196531
 569  6532  1965-02-24 06  1965-03-11 06  127  302  0606   0846              GAY-OLIVE-PEGGY
 570  6533  1965-02-25 12  1965-02-28 00  191  232  1662   1715              196533
 571  6534  1965-02-25 12  1965-03-07 00  148  272  0699   0810          25  196534
 572  6535  1965-02-25 12  1965-03-03 18  147  257  1038   1100              DOLLY
 573  6536  1965-03-04 12  1965-03-14 18  147  319  1129   1263              JOAN
 574  6537  1965-03-20 12  1965-03-26 18  109  383  1083   1257              MAVIS
 575  6538  1965-03-24 00  1965-04-03 18  087  181  0892   1300              RUTH
 576  6539  1965-03-24 00  1965-04-03 18  087  181  0892   1300              196539
 577  6540  1965-03-29 00  1965-03-31 12  140  206  1660   1713              196540
 578  6541  1965-04-01 00  1965-04-02 00  222  258  1739   1772              196541
 579  6542  1965-04-27 06  1965-05-05 06  079  228  0507   0620              ROSE
 580  6601  1965-08-09 18  1965-08-14 06  075  138  0764   0916              196601
 581  6602  1965-08-16 18  1965-08-18 06  081  117  0523   0623              BRENDA
 582  6603  1965-11-30 12  1965-12-05 00  054  180  0774   0870              196603
 583  6604  1965-12-01 00  1965-12-05 00  060  180  0770   0860              ALICE
 584  6605  1965-12-21 00  1966-01-03 18  096  237  1207   1388              GISELE-AMANDA
 585  6606  1965-12-24 18  1966-01-10 06  096  400  0343   0678              CLAUDE
 586  6607  1965-12-25 00  1965-12-29 00  088  151  0914   1009              196607
 587  6608  1965-12-25 06  1965-12-27 12  090  123  0942   1000          25  196608
 588  6609  1965-12-30 00  1966-01-01 00  109  136  0878   0940              196609
 589  6610  1965-12-30 06  1965-12-31 12  111  127  0891   0933          30  196610
 590  6611  1965-12-30 18  1966-01-02 06  096  121  0870   0945              196611
 591  6612  1966-01-02 18  1966-01-11 06  100  318  0517   0754              DENISE
 592  6613  1966-01-11 18  1966-01-13 12  118  146  0855   0898          50  196613
 593  6614  1966-01-11 18  1966-01-14 06  122  166  0845   0900              196614
 594  6615  1966-01-11 18  1966-01-14 00  111  151  0851   0916              196615
 595  6616  1966-01-16 00  1966-01-18 18  141  178  1261   1296              JOY
 596  6617  1966-01-16 18  1966-01-19 06  163  168  0721   0766              EVELYN
 597  6618  1966-01-24 00  1966-02-10 00  136  364  1773   1580W             196618
 598  6619  1966-01-29 12  1966-02-01 00  175  310  1594W  1410W             196619
 599  6620  1966-01-30 18  1966-02-01 06  096  125  0509   0523              FRANCINE
 600  6621  1966-02-05 00  1966-02-09 18  148  199  1126   1167              LISA
 601  6622  1966-02-09 00  1966-02-10 18  111  144  1309   1351              196622
 602  6623  1966-02-11 00  1966-02-12 18  135  168  1252   1294              BETTY
 603  6624  1966-02-14 18  1966-02-17 06  149  200  0371   0431              GERMAINE
 604  6625  1966-02-20 18  1966-02-23 06  190  277  0413   0477              HILARY
 605  6626  1966-02-23 18  1966-03-07 12  110  230  0671   0990          40  MARTHA-JUDITH
 606  6627  1966-02-24 00  1966-03-04 00  140  354  1513   1770W             CONNIE
 607  6628  1966-02-24 18  1966-03-08 06  133  289  0631   0978              196628
 608  6629  1966-03-03 18  1966-03-11 06  123  309  0501   0669              IVY
 609  6630  1966-03-13 18  1966-03-23 12  100  179  0600   1010          40  NANCY-KAY
 610  6631  1966-03-14 18  1966-03-29 06  100  382  0501   0980              196631
 611  6632  1966-03-21 06  1966-03-27 12  100  268  0897   1001          70  NELLIE
 612  6633  1966-03-21 18  1966-03-26 06  105  218  0901   0977              196633
 613  6634  1966-03-22 00  1966-03-23 18  141  157  1069   1070              SANDRA
 614  6635  1966-03-29 00  1966-04-04 18  127  285  1149   1208              SHIRLEY
 615  6636  1966-04-22 18  1966-05-01 06  066  083  0416   0662              LILY
 616  6701  1966-09-28 06  1966-10-06 06  075  111  0436   0850              ANGELA1
 617  6702  1966-11-13 12  1966-11-18 18  082  149  1572   1614          30  ANGELA2
 618  6703  1966-11-21 18  1966-11-29 12  100  205  0750   0910          30  BERYL
 619  6704  1966-11-22 18  1966-11-30 18  100  235  0738   0921              196704
 620  6705  1966-12-11 06  1966-12-21 18  089  292  0438   0634              COLETTE
 621  6706  1966-12-19 18  1966-12-30 12  130  199  0619   0890          40  CLARA-ELISA
 622  6707  1966-12-21 18  1967-01-02 18  125  192  0568   0878              196707
 623  6708  1966-12-22 18  1966-12-26 18  210  231  0390   0491              DAPHNE
 624  6709  1966-12-25 18  1966-12-30 12  110  208  0908   1000          30  DELILAH
 625  6710  1966-12-28 06  1966-12-30 06  175  220  0365   0425              196710
 626  6711  1966-12-28 06  1967-01-01 06  137  264  0910   0975              196711
 627  6712  1967-01-01 00  1967-01-02 18  343  393  1624   1786              196712
 628  6713  1967-01-06 00  1967-01-09 18  150  195  1015   1141              EDITH
 629  6714  1967-01-08 06  1967-01-18 18  088  394  0574   0710              GILBERTE
 630  6715  1967-01-15 00  1967-01-22 18  139  277  1131   1240              ELSIE
 631  6716  1967-01-22 12  1967-02-02 18  122  415  1528   1797W         90  DINAH-AGNES
 632  6717  1967-01-27 00  1967-02-06 00  158  248  1648   1752              196717
 633  6718  1967-02-07 18  1967-02-17 18  125  272  0538   0666              HUGUETTE
 634  6719  1967-02-17 12  1967-02-21 18  131  284  1544   1637              BARBARA
 635  6720  1967-02-23 00  1967-02-26 00  150  193  1658   1710              196720
 636  6721  1967-02-28 18  1967-03-08 12  217  409  1581   1660          65  196721
 637  6722  1967-03-03 06  1967-03-08 12  161  293  1220   1517          40  GWEN
 638  6723  1967-03-13 00  1967-03-17 06  151  275  1542   1627          30  DULCIE
 639  6724  1967-03-13 12  1967-03-18 18  143  302  1465   1579              ELAINE
 640  6725  1967-03-14 00  1967-03-18 18  117  147  1355   1388              CYNTHIA
 641  6726  1967-03-26 12  1967-04-06 18  100  334  1556   1610              GLENDA
 642  6727  1967-03-27 00  1967-03-31 00  129  260  1592   1650              196727
 643  6728  1967-04-05 18  1967-04-12 18  098  250  0830   0960              196728
 644  6729  1967-04-06 00  1967-04-14 18  101  366  0850   1155          50  JACKIE-LAURA
 645  6730  1967-05-12 18  1967-05-21 18  050  132  0532   0761              KATHY
 646  6801  1967-11-09 12  1967-11-16 12  050  238  1509   1710              ANNIE
 647  6802  1967-12-06 00  1967-12-10 06  151  290  1493   1642              196802
 648  6803  1967-12-08 06  1967-12-22 06  080  261  0658   0783              BELINDA
 649  6804  1967-12-09 12  1967-12-11 18  242  274  1546   1589              196804
 650  6805  1967-12-14 00  1967-12-20 00  103  290  1754W  1480W             196805
 651  6806  1967-12-19 18  1967-12-27 06  120  273  0568   0644              CARMEN
 652  6807  1967-12-29 06  1968-01-09 06  100  350  0655   0805              ELSPETH
 653  6808  1967-12-30 06  1968-01-05 00  124  175  0722   0809              AMY
 654  6809  1967-12-30 06  1968-01-02 06  170  193  0416   0437              DEBBY
 655  6810  1968-01-08 06  1968-01-14 06  168  389  0338   0499              FLOSSIE
 656  6811  1968-01-09 06  1968-01-31 06  130  330  0361   0714              GOERGETTE
 657  6812  1968-01-11 00  1968-01-16 18  109  147  1097   1202              BETSY
 658  6813  1968-01-14 00  1968-01-20 00  119  262  1590   1730              BRENDA
 659  6814  1968-01-17 06  1968-01-26 06  110  348  0518   0720              HENRIETTE
 660  6815  1968-01-18 00  1968-01-19 18  119  136  1292   1320              196815
 661  6816  1968-01-19 00  1968-01-23 18  070  182  0928   0970          50  196816
 662  6817  1968-01-20 06  1968-01-26 06  103  227  0928   0975              DOREEN
 663  6818  1968-01-20 12  1968-01-25 18  145  220  1112   1282          35  BERTHA
 664  6819  1968-01-26 00  1968-01-27 12  141  165  1624   1649              196819
 665  6820  1968-01-26 12  1968-01-28 18  152  196  1351   1401              DIXIE
 666  6821  1968-02-02 18  1968-02-05 00  145  152  1354   1397          20  196821
 667  6822  1968-02-05 00  1968-02-06 18  191  239  1120   1178              ELLA
 668  6823  1968-02-10 18  1968-02-15 06  137  208  0563   0590              IDA
 669  6824  1968-02-13 00  1968-02-15 18  149  162  1061   1218              JANINE-GINA
 670  6825  1968-02-13 00  1968-02-15 18  162  210  1386   1430              196825
 671  6826  1968-02-17 06  1968-02-26 06  161  322  0727   0999              196826
 672  6827  1968-02-20 00  1968-02-24 18  127  156  1287   1391              BONNIE
 673  6828  1968-02-25 00  1968-02-28 18  134  143  1475   1555          20  196828
 674  6829  1968-02-29 00  1968-03-08 00  138  387  1619   1748              FLORENCE
 675  6830  1968-03-06 06  1968-03-13 06  125  332  0519   0580              KARINE
 676  6831  1968-03-26 06  1968-04-03 06  130  375  0600   0774              MONIQUE
 677  6832  1968-04-04 00  1968-04-10 12  070  440  1602   1766              GISELLE
 678  6833  1968-04-05 06  1968-04-12 06  095  232  0730   0800              NOREEN
 679  6901  1968-10-28 18  1968-11-03 06  053  132  0570   0699              ANNIE
 680  6902  1968-11-03 00  1968-11-03 12  172  210  1750   1790              196902
 681  6903  1968-11-23 00  1968-11-28 18  093  200  1515   1541          30  ADELE
 682  6904  1968-12-10 00  1968-12-15 00  085  294  1609   1793W             BECKY
 683  6905  1968-12-15 18  1968-12-24 06  111  212  0830   0920              AMBER
 684  6906  1968-12-16 00  1968-12-22 18  120  190  0848   0909              196906
 685  6907  1968-12-19 00  1968-12-24 18  124  146  1020   1084              BEATIE
 686  6908  1968-12-26 18  1969-01-03 18  103  127  0455   0913              BETTINA-BERTHE
 687  6909  1968-12-27 00  1969-01-02 18  111  231  0887   1129          30  CHERI
 688  6910  1968-12-27 00  1968-12-29 18  110  145  0764   0908              196910
 689  6911  1968-12-31 18  1969-01-04 06  158  236  0844   1015              196911
 690  6912  1968-12-31 18  1969-01-04 06  158  236  0844   1015              196912
 691  6913  1969-01-07 12  1969-01-16 00  100  260  1792   1639W             196913
 692  6914  1969-01-14 18  1969-01-16 06  074  105  0520   0566              CLAIRE
 693  6915  1969-01-24 00  1969-01-26 18  129  176  1472   1481              BRIDGET
 694  6916  1969-01-27 00  1969-01-30 18  110  160  1045   1131              196916
 695  6917  1969-01-27 06  1969-02-09 06  084  300  0410   0709              DANY
 696  6918  1969-01-30 00  1969-02-07 12  110  358  1585   1706W             COLLEEN
 697  6919  1969-02-04 18  1969-02-13 06  129  346  0592   0844              196919
 698  6920  1969-02-05 06  1969-02-09 00  134  229  0723   0846          40  ENID/FANNY
 699  6921  1969-02-13 00  1969-02-14 12  154  199  1724   1742              HORTENSE
 700  6922  1969-02-13 06  1969-02-19 06  207  258  0385   0441              GILLETTE
 701  6923  1969-02-15 00  1969-02-19 18  187  206  1128   1232              GLADYS
 702  6924  1969-02-16 00  1969-02-25 00  148  207  1530   1746              IRENE
 703  6925  1969-02-25 00  1969-02-27 12  130  255  1781   1727W             196925
 704  6926  1969-02-26 12  1969-03-05 00  108  250  1640   1750              196926
 705  6927  1969-03-01 00  1969-03-08 18  112  205  1229   1363              AUDREY-BONNIE
 706  6928  1969-03-15 00  1969-03-16 12  163  190  1621   1663              196928
 707  6929  1969-03-20 06  1969-03-27 06  073  300  0555   0729              HELENE
 708  6930  1969-03-29 00  1969-04-06 18  102  343  0971   1171          40  196930
 709  6931  1969-03-29 00  1969-04-06 18  102  343  0971   1171          40  LEONIE
 710  6932  1969-04-01 00  1969-04-03 18  148  202  1603   1666          40  196932
 711  6933  1969-04-08 12  1969-04-15 18  108  213  1522   1577          30  196933
 712  6934  1969-04-11 06  1969-04-16 12  105  310  1563   1651          30  196934
 713  6935  1969-04-26 00  1969-04-30 18  089  139  1492   1585          55  ESTHER
 714  7001  1969-08-18 18  1969-08-21 18  092  118  0523   0691              ALINE
 715  7002  1969-10-07 18  1969-10-14 18  062  114  0427   0732              BLANCHE
 716  7003  1969-11-14 00  1969-11-15 18  201  313  1532   1549          20  197003
 717  7004  1969-11-16 18  1969-11-20 18  101  138  0388   0565              CORINNE
 718  7005  1970-01-03 00  1970-01-18 06  114  208  1486   1650          70  ADA
 719  7006  1970-01-04 00  1970-01-07 12  090  164  1722   1768              197006
 720  7007  1970-01-04 12  1970-01-17 00  070  288  0603   0966              FRANCOISE
 721  7008  1970-01-07 00  1970-01-10 12  167  208  0408   0424              ELIANE
 722  7009  1970-01-09 00  1970-01-12 00  124  259  1787   1750W             197009
 723  7010  1970-01-11 00  1970-01-12 00  225  326  1775   1710W             197010
 724  7011  1970-01-11 00  1970-01-19 00  149  292  0433   0552              GENEVIEVE
 725  7012  1970-01-22 00  1970-01-27 00  114  340  0533   0643              HERMINE
 726  7013  1970-02-01 12  1970-02-14 12  156  328  0596   0849              ISEULT
 727  7014  1970-02-09 00  1970-03-02 00  139  374  0443   0826              JANE
 728  7015  1970-02-09 12  1970-02-19 12  133  249  0872   0986              197015
 729  7016  1970-02-10 06  1970-02-19 00  114  244  1387   1620          45  DAWN
 730  7017  1970-02-10 18  1970-02-12 12  141  156  1545   1588          40  FLORENCE
 731  7018  1970-02-11 12  1970-02-24 12  151  290  1630   1435W             DOLLY
 732  7019  1970-02-14 12  1970-02-17 00  247  310  1781   1674W             197019
 733  7020  1970-03-01 00  1970-03-05 12  160  322  1600W  1406W             EMMA
 734  7021  1970-03-01 06  1970-03-04 12  137  161  1470   1517          25  197021
 735  7022  1970-03-04 12  1970-03-07 12  167  202  1530   1600              197022
 736  7023  1970-03-12 00  1970-03-20 18  088  157  1350   1544          20  197023
 737  7024  1970-03-17 00  1970-03-24 12  152  225  0499   0582              KATIA
 738  7025  1970-03-20 06  1970-03-22 12  154  163  1384   1434          25  CINDY
 739  7026  1970-03-22 00  1970-04-01 00  125  355  0589   0700              LOUISE
 740  7027  1970-03-23 00  1970-03-30 12  129  240  0686   0906              MICHELE
 741  7028  1970-04-01 12  1970-04-04 00  170  275  1654   1757              197028
 742  7029  1970-04-07 12  1970-04-11 00  157  288  1781W  1595W             GILLIAN
 743  7030  1970-04-13 12  1970-04-17 00  148  204  1764W  1733W             HELEN
 744  7031  1970-04-14 00  1970-04-18 18  078  100  1540   1639          25  ISA
 745  7032  1970-06-22 12  1970-06-23 12  110  140  1743   1763              197032
 746  7101  1970-10-05 06  1970-10-09 06  080  117  0448   0617              BETSY
 747  7102  1970-11-05 06  1970-11-13 06  139  199  0604   0917              CLAUDINE
 748  7103  1970-11-21 18  1970-11-30 06  128  193  0651   0924              197103
 749  7104  1970-12-14 06  1970-12-28 06  110  246  0589   0890              HILARY-DOMINIQUE
 750  7105  1970-12-20 06  1970-12-23 06  101  220  0969   1010              JANET
 751  7106  1970-12-30 00  1971-01-01 00  145  164  1540   1638              197106
 752  7107  1970-12-30 00  1971-01-06 00  148  398  1628   1690              ROSIE
 753  7108  1971-01-17 06  1971-01-31 06  148  362  0539   0899              MYRTLE-GINETTE
 754  7109  1971-01-17 06  1971-02-05 06  105  269  0390   0589              FELICIE
 755  7110  1971-01-21 06  1971-01-31 06  116  289  0808   0997              197110
 756  7111  1971-01-23 00  1971-01-30 00  168  290  1095   1162          45  RITA
 757  7112  1971-01-29 00  1971-02-06 00  140  340  1170   1210          70  SHEILASOPHI
 758  7113  1971-02-01 00  1971-02-03 18  150  162  1342   1387          45  AGGIE
 759  7114  1971-02-03 06  1971-02-12 06  174  340  0518   0610              HELGA
 760  7115  1971-02-10 12  1971-02-17 06  196  280  1527   1616          60  DORA
 761  7116  1971-02-11 00  1971-02-16 06  170  225  1445   1541          65  GERTIE
 762  7117  1971-02-12 06  1971-02-15 18  160  265  0715   0849              IPHIGENIE
 763  7118  1971-02-15 06  1971-02-21 12  164  258  1559   1678          45  IDA
 764  7119  1971-02-15 06  1971-02-22 18  180  352  0399   0501              JOELLE
 765  7120  1971-02-16 06  1971-02-25 18  154  345  0580   0903              KALINKA
 766  7121  1971-02-16 12  1971-02-28 06  136  244  1374   1631          50  FIONA
 767  7122  1971-02-21 06  1971-02-28 18  161  259  0603   0891              YVONNE-LISE
 768  7123  1971-03-10 18  1971-03-17 06  128  322  0717   0872              MAGGIE-MURIEL
 769  7124  1971-03-13 00  1971-03-19 18  125  240  1541   1657          55  LENA
 770  7125  1971-03-15 06  1971-03-24 06  185  330  0367   0510              NELLY
 771  7126  1971-03-23 00  1971-03-29 00  170  320  1056   1300          50  MAVIS
 772  7201  1971-07-09 06  1971-07-16 06  067  186  0599   0766              ODETTE
 773  7202  1971-10-20 00  1971-10-26 00  085  152  0780   0861              RHODA
 774  7203  1971-11-05 00  1971-11-08 12  211  280  1666   1780W             197203
 775  7204  1971-12-02 00  1971-12-05 12  090  120  1304   1390          35  KITTY
 776  7205  1971-12-02 00  1971-12-16 00  069  310  1623   1769              URSULA
 777  7206  1971-12-03 00  1971-12-13 00  070  190  1190   1265          65  SALLY
 778  7207  1971-12-10 06  1971-12-23 18  101  213  0396   0808              AGNES
 779  7208  1971-12-16 00  1971-12-19 12  140  233  1660W  1482W             VIVIENNE
 780  7209  1971-12-20 00  1971-12-29 18  110  324  1426   1648          65  ALTHEA
 781  7210  1972-01-02 06  1972-01-07 18  140  228  0516   0658              BELLE
 782  7211  1972-01-03 00  1972-01-11 18  113  243  1387   1430          35  BRONWYN
 783  7212  1972-01-04 18  1972-01-21 12  095  280  1519   1733          65  CARLOTTA
 784  7213  1972-01-29 18  1972-02-09 12  100  262  1569   1750         120  WENDY
 785  7214  1972-02-02 06  1972-02-14 06  208  267  0340   0410              CAROLINE
 786  7215  1972-02-04 06  1972-02-10 06  178  308  0502   0564              DOLLY
 787  7216  1972-02-06 00  1972-02-13 18  149  276  1500   1576          80  DAISY
 788  7217  1972-02-07 18  1972-02-21 18  127  241  0360   0681              EUGENIE
 789  7218  1972-02-10 06  1972-02-27 06  121  342  0546   0880              FABIENNE
 790  7219  1972-02-20 00  1972-02-25 00  118  232  0883   1151          40  GIGI-TESSIE
 791  7220  1972-02-23 06  1972-02-29 06  170  360  0780   0972              197220
 792  7221  1972-02-23 18  1972-03-04 00  110  169  1080   1254          85  VICKY
 793  7222  1972-02-29 00  1972-03-03 00  080  133  0970   1100          40  ANGELA
 794  7223  1972-02-29 06  1972-03-11 18  146  214  0418   0748              HERMIONE
 795  7224  1972-03-17 12  1972-03-24 00  172  390  1610   1778              YOLANDE
 796  7225  1972-03-20 00  1972-03-29 00  100  230  0900   1050          35  BELINDA
 797  7226  1972-03-22 12  1972-03-26 12  150  258  1617W  1581W             AGATHA
 798  7227  1972-03-28 00  1972-04-03 18  111  314  1512   1593          65  EMILY
 799  7228  1972-04-10 12  1972-04-23 18  096  142  1395   1523          35  FAITH
 800  7229  1972-04-11 00  1972-04-17 18  128  176  1540   1700          65  GAIL
 801  7230  1972-05-08 00  1972-05-12 06  058  116  1502   1554          20  HANNAH
 802  7231  1972-05-29 18  1972-06-05 12  051  269  1564   1788          50  IDA
 803  7301  1972-10-19 00  1972-10-29 12  074  413  1732   1560W             BEBE
 804  7302  1972-11-26 00  1972-12-01 12  072  168  1640   1741              197302
 805  7303  1972-11-26 06  1972-12-02 18  080  220  0559   0620              ARIANE
 806  7304  1972-12-06 00  1972-12-18 12  060  328  1628   1740              DIANA
 807  7305  1972-12-08 06  1972-12-25 06  110  280  0546   0821              IVY-BEATRICE
 808  7306  1972-12-31 00  1973-01-02 12  119  186  1779   1724W             197306
 809  7307  1972-12-31 00  1973-01-08 12  080  413  1735   1609W             197307
 810  7308  1973-01-02 06  1973-01-12 18  070  285  0451   0628              CHARLOTTE
 811  7309  1973-01-10 00  1973-01-16 18  121  256  0984   1150              JEAN
 812  7310  1973-01-11 06  1973-01-15 06  203  268  0402   0571              DOROTHEE
 813  7311  1973-01-14 00  1973-01-17 12  131  242  1658W  1584W             FELICITY
 814  7312  1973-01-18 06  1973-01-21 06  115  162  0504   0583              EMMANUELLE
 815  7313  1973-01-19 00  1973-01-23 18  147  256  1168   1206          85  KERRY
 816  7314  1973-01-19 06  1973-01-21 06  160  167  0417   0438              FAUSTINE
 817  7315  1973-01-22 06  1973-02-03 18  119  348  0627   0832              LEILA-GERTRUDE
 818  7316  1973-01-24 06  1973-02-05 06  119  284  0448   0688              HORTENSE
 819  7317  1973-01-27 00  1973-01-31 12  149  216  1310   1387              ADELINE
 820  7318  1973-01-28 00  1973-01-31 06  155  180  1201   1228              MAUD
 821  7319  1973-01-29 00  1973-02-01 12  157  245  1750W  1639W             GLENDA
 822  7320  1973-01-31 00  1973-02-05 00  100  288  1690   1652W             197320
 823  7321  1973-02-14 06  1973-02-19 06  112  175  0489   0520              ISIS
 824  7322  1973-02-14 18  1973-02-27 18  087  376  0599   0670              JESSY
 825  7323  1973-02-21 00  1973-03-02 12  129  412  1511   1650              KIRSTY
 826  7324  1973-02-25 06  1973-03-05 06  111  360  0604   0727              KITTY
 827  7325  1973-02-26 12  1973-03-01 00  106  140  1350   1404              197325
 828  7326  1973-03-02 00  1973-03-07 12  149  258  1726   1755W             HENRIETTA
 829  7327  1973-03-02 12  1973-03-17 18  094  207  0890   1529          80  MADGE
 830  7328  1973-03-03 00  1973-03-10 18  136  220  0936   1245              LEAH
 831  7329  1973-03-04 06  1973-03-15 06  116  340  0513   0711              LYDIE
 832  7330  1973-03-13 06  1973-03-23 00  123  204  0944   1261          60  NELLIE
 833  7331  1973-03-20 00  1973-03-25 12  093  170  1310   1377              BELLA
 834  7332  1973-03-25 18  1973-04-01 06  086  161  0865   1035              197332
 835  7333  1973-04-02 00  1973-04-05 12  126  262  1676   1667W             197333
 836  7334  1973-04-18 00  1973-04-23 00  120  222  0788   0823              197334
 837  7335  1973-04-28 18  1973-05-09 00  088  450  0790   1274              197335
 838  7336  1973-05-01 18  1973-05-06 06  060  259  0781   0850              197336
 839  7401  1973-07-07 00  1973-07-10 00  169  277  1605   1736              197401
 840  7402  1973-07-08 00  1973-07-14 12  241  300  1540   1769              197402
 841  7403  1973-09-12 06  1973-09-23 18  072  116  0433   0860              ALICE
 842  7404  1973-10-16 06  1973-10-28 06  060  121  0427   0777              BERNADETTE
 843  7405  1973-11-07 00  1973-11-10 12  170  342  1702W  1645W             197405
 844  7406  1973-11-17 00  1973-11-25 00  100  195  1235   1347              INES
 845  7407  1973-11-26 00  1973-12-04 00  099  232  1136   1185              BERYL
 846  7408  1973-12-01 00  1973-12-12 12  120  335  1523   1643W             NATALIE-LOTTIE
 847  7409  1973-12-14 06  1973-12-22 18  091  131  0678   0750              CHRISTIANE
 848  7410  1973-12-15 00  1973-12-22 12  123  320  1469   1630              UNA
 849  7411  1973-12-20 06  1974-01-03 06  101  293  0652   0981              DEIDRE-DELIDA
 850  7412  1973-12-30 00  1974-01-03 00  176  230  1056   1180              ERICA
 851  7413  1973-12-31 06  1974-01-06 06  211  293  0429   0548              ESMERALDA
 852  7414  1974-01-07 00  1974-01-14 00  145  188  1045   1231              FIONA-GWEND
 853  7415  1974-01-15 12  1974-01-20 12  165  340  1648   1737W             MONICA
 854  7416  1974-01-17 00  1974-01-22 00  187  365  1560   1779              NESSIE
 855  7417  1974-01-17 00  1974-01-22 12  190  280  1503   1697              VERA
 856  7418  1974-01-19 18  1974-01-20 18  122  124  0483   0520              FREDEGONDE
 857  7419  1974-01-23 00  1974-01-25 00  206  258  1515   1556              WANDA
 858  7420  1974-02-01 00  1974-02-08 12  122  443  1578   1785              PAM
 859  7421  1974-02-08 12  1974-02-21 00  150  219  1201   1525              YVONNE
 860  7422  1974-02-14 12  1974-02-20 12  183  300  1637   1780W             197422
 861  7423  1974-02-19 00  1974-02-24 00  160  200  1755   1749W             197423
 862  7424  1974-02-22 18  1974-03-02 18  148  316  0710   0842              GHISLAINE
 863  7425  1974-02-24 00  1974-02-28 12  204  408  1763   1724W             197425
 864  7426  1974-02-28 00  1974-03-04 12  168  206  1035   1223              HELEN
 865  7427  1974-03-05 00  1974-03-20 12  190  461  1510   1705W             ZOE
 866  7428  1974-03-09 00  1974-03-13 12  120  194  1053   1117              ISOBEL
 867  7429  1974-03-16 00  1974-03-21 12  118  153  1039   1219              JESSIE
 868  7430  1974-03-17 00  1974-03-18 00  121  123  1350   1379              JENNY
 869  7431  1974-03-20 00  1974-03-31 00  120  219  1058   1289              197431
 870  7432  1974-03-21 00  1974-03-29 12  217  391  1530   1615              ALICE
 871  7433  1974-04-14 06  1974-04-23 18  071  100  0408   0608              HONORINE
 872  7434  1974-04-23 12  1974-04-28 12  125  253  1640   1561W             TINA
 873  7501  1974-11-19 12  1974-11-22 00  200  240  1560   1637              197501
 874  7502  1974-11-21 00  1974-11-25 00  237  331  1572   1668              197502
 875  7503  1974-12-01 00  1974-12-09 00  107  124  1111   1302          45  SELMA
 876  7504  1974-12-06 00  1974-12-09 00  120  160  1523   1654              197504
 877  7505  1974-12-11 00  1974-12-15 12  150  258  1770   1512W             197505
 878  7506  1974-12-18 12  1974-12-24 12  152  318  1755W  1631W             197506
 879  7507  1974-12-21 12  1974-12-24 12  094  122  1298   1320          65  TRACY
 880  7508  1974-12-23 06  1974-12-23 18  217  232  0425   0445              ADELE
 881  7509  1975-01-07 18  1975-01-12 18  187  380  0389   0642              BLANDINE
 882  7510  1975-01-10 18  1975-01-21 18  080  338  0412   0554              CAMILLE
 883  7511  1975-01-13 00  1975-01-14 12  141  164  1574   1596              197511
 884  7512  1975-01-13 00  1975-01-22 00  120  286  1593   1555W             FLORA
 885  7513  1975-01-14 12  1975-01-22 12  130  270  1470   1751W             GLORIA
 886  7514  1975-01-15 18  1975-01-28 18  148  373  0390   0920              ROBYN-DEBORAH
 887  7515  1975-01-19 12  1975-01-21 00  233  236  1614   1671              197515
 888  7516  1975-01-24 00  1975-02-05 12  125  383  1728   1732W             VAL
 889  7517  1975-01-24 18  1975-01-26 06  140  154  0509   0527              ELSA
 890  7518  1975-01-26 00  1975-01-28 12  116  137  1599   1711              197518
 891  7519  1975-01-31 18  1975-02-02 06  190  230  0445   0500              FERNANDE
 892  7520  1975-02-01 18  1975-02-09 18  110  372  0558   0731              GERVAISE
 893  7521  1975-02-15 00  1975-02-22 00  163  267  1142   1240              TRIXIE
 894  7522  1975-02-22 18  1975-02-26 18  215  325  0370   0396              HELOSE
 895  7523  1975-03-03 12  1975-03-13 12  154  454  1646   1729              ALISON
 896  7524  1975-03-09 06  1975-03-11 18  129  180  0482   0531              INES
 897  7525  1975-03-10 12  1975-03-14 06  105  144  1282   1341          60  WILMA
 898  7526  1975-03-13 06  1975-03-19 18  151  380  0519   0692              197526
 899  7527  1975-03-17 12  1975-03-20 00  130  321  1010   1126              VIDA
 900  7528  1975-03-22 00  1975-04-01 12  122  318  1106   1178              BEVERLEY
 901  7529  1975-03-30 00  1975-04-12 12  139  329  1630   1772W             197529
 902  7530  1975-04-06 12  1975-04-08 12  104  118  1335   1370          35  AMELIA
 903  7531  1975-04-19 18  1975-04-22 18  083  091  0766   0866              JUNON
 904  7532  1975-04-20 00  1975-04-26 00  146  272  1040   1113              CLARA
 905  7601  1975-07-31 00  1975-08-04 12  226  268  1757   1720W             197601
 906  7602  1975-11-17 12  1975-11-25 00  070  238  0840   1018              RAY
 907  7603  1975-11-20 06  1975-11-29 18  087  140  0500   0705              AUDREY
 908  7604  1975-11-30 00  1975-12-10 00  110  264  1164   1284         125  JOAN
 909  7605  1975-12-01 00  1975-12-10 00  105  151  1331   1418          45  KIM
 910  7606  1975-12-06 06  1975-12-17 06  120  223  0481   0660              BARBARA
 911  7607  1975-12-12 00  1975-12-16 00  092  121  1006   1179              SUE
 912  7608  1976-01-07 06  1976-01-21 18  091  348  0449   0644              CLOTILDE
 913  7609  1976-01-11 06  1976-01-27 18  108  228  0350   0858              DANAE-TERRY
 914  7610  1976-01-12 00  1976-01-22 12  144  284  1420   1722              DAVID
 915  7611  1976-01-15 00  1976-01-28 00  144  317  1101   1218              VANESSA
 916  7612  1976-01-20 00  1976-01-26 12  140  352  1609   1699              ELSA
 917  7613  1976-01-30 00  1976-02-02 12  123  187  1395   1610              ALAN
 918  7614  1976-02-02 12  1976-02-09 12  210  358  1720W  1322W             FRANCES
 919  7615  1976-02-16 12  1976-02-22 12  138  243  1499   1595              BETH
 920  7616  1976-02-22 12  1976-02-27 12  164  301  1122   1250              WALLY
 921  7617  1976-02-24 00  1976-03-06 00  060  418  1541   1587              COLIN
 922  7618  1976-03-03 00  1976-03-11 00  124  172  0924   1151              ALICE
 923  7619  1976-03-09 12  1976-03-13 12  150  222  1510   1618              GEORGE
 924  7620  1976-03-09 12  1976-03-13 00  130  254  1569   1668              HOPE
 925  7621  1976-03-10 18  1976-03-12 18  099  150  0415   0484              197621
 926  7622  1976-03-25 06  1976-03-26 06  089  130  0499   0530              FREDERIQUE
 927  7623  1976-03-27 06  1976-04-10 18  128  241  0384   0568              GLADYS
 928  7624  1976-04-05 06  1976-04-12 06  103  179  0659   0827              BERT-HELIOTROPE
 929  7625  1976-04-15 00  1976-04-22 00  122  458  1550   1761W             JAN
 930  7626  1976-04-22 00  1976-04-30 00  036  372  1477   1777              WATOREA
 931  7627  1976-05-03 00  1976-05-09 00  078  198  0888   0918              CAROL
 932  7701  1976-10-02 18  1976-10-15 06  043  094  0449   0733              AGATHE
 933  7702  1976-11-06 18  1976-11-29 18  038  122  0512   0899              BRIGITTA
 934  7703  1976-12-15 00  1976-12-21 00  084  172  0804   1030              HARRY
 935  7704  1976-12-16 00  1976-12-20 00  127  198  1377   1405         100  TED
 936  7705  1977-01-01 06  1977-01-16 18  108  346  0507   0862              CLARENCE
 937  7706  1977-01-06 00  1977-01-13 00  112  173  1125   1249          85  IRENE
 938  7707  1977-01-11 00  1977-01-21 00  122  300  1670   1779W         70  MARION
 939  7708  1977-01-17 00  1977-01-26 00  154  225  1495   1758          70  JUNE
 940  7709  1977-01-17 06  1977-01-23 18  122  342  0419   0460              DOMITILE
 941  7710  1977-01-25 06  1977-02-10 18  105  218  0177   0641              EMILIE
 942  7711  1977-01-25 18  1977-02-10 18  090  348  0514   0782              FIFI
 943  7712  1977-01-30 00  1977-02-01 00  152  196  1462   1482          50  KEITH
 944  7713  1977-02-01 18  1977-02-08 18  125  230  0619   0918              GILDA
 945  7714  1977-02-08 06  1977-03-02 18  118  396  0603   1049              JACK-IO
 946  7715  1977-02-09 00  1977-02-12 00  150  158  1480   1520          40  LILY
 947  7716  1977-02-09 00  1977-02-13 00  140  166  1575   1605          45  MILES
 948  7717  1977-02-10 06  1977-03-03 18  080  322  0425   0760              HERVEA
 949  7718  1977-02-12 12  1977-02-13 00  157  158  1455   1474          35  NANCY
 950  7719  1977-03-02 12  1977-03-09 12  139  241  1112   1237          85  KAREN
 951  7720  1977-03-07 00  1977-03-10 00  129  218  1403   1482          55  OTTO
 952  7721  1977-03-09 00  1977-03-13 00  110  175  1616   1680          40  NORMAN
 953  7722  1977-03-15 00  1977-03-18 00  190  340  1760W  1520W             PAT
 954  7723  1977-03-24 00  1977-03-28 00  150  218  1187   1245          90  LEO
 955  7724  1977-04-16 00  1977-04-23 12  119  270  1580W  1320W         80  ROBERT
 956  7725  1977-04-28 00  1977-05-02 12  070  110  1287   1341          60  VERNA
 957  7801  1977-11-06 00  1977-11-12 00  070  185  1529   1604          50  TOM
 958  7802  1977-11-19 06  1977-11-29 06  050  191  0622   0811              AURORE
 959  7803  1977-11-24 00  1977-12-02 12  059  322  1744   1769          65  STEVE
 960  7804  1977-12-04 06  1977-12-10 06  125  188  0570   0750              BABETTE
 961  7805  1977-12-05 00  1977-12-11 00  110  198  1560W  1299W         40  TESSA
 962  7806  1977-12-15 06  1977-12-22 06  100  158  0733   0869              SAM-CELIMENE
 963  7807  1977-12-22 12  1977-12-29 00  164  230  1459   1704              197807
 964  7808  1977-12-23 12  1977-12-29 12  118  300  1799   1580W         55  ANNE
 965  7809  1977-12-26 06  1977-12-28 06  095  140  0645   0683              DULCINEE
 966  7810  1977-12-28 06  1978-01-02 06  105  310  0668   0720              ESTHER
 967  7811  1977-12-31 00  1978-01-10 12  085  353  1654   1725W        100  BOB
 968  7812  1978-01-10 00  1978-01-20 00  106  252  0880   1290          95  TRUDY
 969  7813  1978-01-16 06  1978-01-23 06  101  313  0569   0659              FLEUR
 970  7814  1978-01-26 06  1978-01-31 06  195  250  0610   0815              HUBERTE
 971  7815  1978-01-27 06  1978-02-05 06  180  309  0425   0602              GEORGIA
 972  7816  1978-01-27 12  1978-02-03 00  156  236  1097   1214          85  VERN
 973  7817  1978-02-01 00  1978-02-07 12  187  328  1466   1614              197817
 974  7818  1978-02-10 06  1978-02-14 06  100  209  0360   0480              IRENA
 975  7819  1978-02-12 06  1978-02-20 06  152  243  0725   0844              JACQUELINE
 976  7820  1978-02-13 12  1978-03-01 00  128  350  1791   1470W         75  CHARLES
 977  7821  1978-02-15 12  1978-02-21 12  118  223  1682   1745W         50  ERNIE
 978  7822  1978-02-16 00  1978-02-22 00  164  280  1593W  1480W         50  DIANA
 979  7823  1978-02-25 12  1978-03-04 12  112  297  1352   1780              GWEN
 980  7824  1978-03-04 06  1978-03-09 06  120  280  0465   0592              KIKI
 981  7825  1978-03-14 06  1978-03-18 06  105  155  0506   0543              LUCIE
 982  7826  1978-03-15 06  1978-03-19 06  110  168  0664   0710              197826
 983  7827  1978-03-16 00  1978-03-29 00  130  377  0838   0952         105  197827
 984  7828  1978-03-18 06  1978-03-22 06  090  241  0685   0789              197828
 985  7829  1978-03-27 00  1978-04-01 00  137  198  1084   1150         100  197829
 986  7830  1978-04-01 12  1978-04-04 12  206  352  1059   1150         115  197830
 987  7831  1978-04-05 00  1978-04-13 00  110  170  1136   1204          45  197831
 988  7832  1978-04-05 00  1978-04-17 00  115  340  1355   1680              197832
 989  7901  1978-11-19 12  1978-11-23 00  102  200  0885   0970          40  197901
 990  7902  1978-12-13 06  1979-01-05 06  162  341  0355   0750              ANGELE
 991  7903  1978-12-20 00  1978-12-26 00  098  135  0725   0893          55  197903
 992  7904  1978-12-24 12  1978-12-31 12  040  355  1720   1748W             FAY
 993  7905  1978-12-29 00  1979-01-04 12  100  163  1356   1480          50  PETER
 994  7906  1979-01-02 00  1979-01-11 12  042  202  1481   1791          75  GORDON
 995  7907  1979-01-03 06  1979-01-13 06  100  296  0529   0599              BENJAMINE
 996  7908  1979-01-08 12  1979-01-13 00  129  175  1372   1447          50  GRETA
 997  7909  1979-01-27 00  1979-02-05 00  130  460  1650   1750          50  HENRY
 998  7910  1979-01-31 06  1979-02-12 06  120  349  0546   0739              CELINE
 999  7911  1979-02-01 12  1979-02-07 00  122  251  1505   1675          40  197911
1000  7912  1979-02-04 06  1979-02-14 06  169  222  0412   0442              DORA
1001  7913  1979-02-11 00  1979-03-05 12  048  230  1474   1701         105  KERRY
1002  7914  1979-02-11 06  1979-02-18 06  160  244  0480   0631              ESTELLE
1003  7915  1979-02-14 06  1979-02-18 18  175  277  0490   0560              FATOU
1004  7916  1979-02-17 00  1979-02-28 00  136  185  1290   1401          95  ROSA
1005  7917  1979-02-20 00  1979-02-23 12  159  308  1745W  1598W         40  LESLIE
1006  7918  1979-03-07 06  1979-03-13 06  135  270  0604   0690              GELIE
1007  7919  1979-03-07 12  1979-03-14 00  135  297  1121   1228         100  HAZEL
1008  7920  1979-03-16 00  1979-03-20 12  132  215  0820   0920          60  IVAN
1009  7921  1979-03-23 06  1979-03-31 06  101  250  0540   0620              HELIOS
1010  7922  1979-03-24 00  1979-03-31 12  150  400  1748   1600W        115  MELI
1011  7923  1979-03-30 12  1979-04-03 12  120  224  1662   1757W             197923
1012  7924  1979-04-03 00  1979-04-17 00  078  153  1355   1656              STAN
1013  7925  1979-04-06 06  1979-04-15 06  106  247  0682   0963              IDYLLE
1014  7926  1979-04-09 00  1979-04-13 12  130  194  0938   1006          35  JANE
1015  7927  1979-04-28 00  1979-05-09 00  060  090  0809   0940          50  KEVIN
1016  8001  1979-11-25 00  1979-12-06 06  070  295  0669   0860         100  ALBINE
1017  8002  1979-12-10 00  1979-12-28 06  086  362  0571   0920         110  VIOLA-CLAUDETTE
1018  8003  1979-12-15 12  1979-12-21 12  170  370  0505   0780          35  BERENICE
1019  8004  1979-12-24 12  1980-01-02 12  114  168  0750   0931          55  WILF-DANITZA
1020  8005  1980-01-01 00  1980-01-06 00  112  220  1724   1705W         65  PENI
1021  8006  1980-01-03 00  1980-01-12 12  140  472  1360   1610          60  PAUL
1022  8007  1980-01-04 12  1980-01-11 00  132  227  1178   1200         100  AMY
1023  8008  1980-01-17 00  1980-01-29 00  169  295  0497   0589          70  HYACINTHE
1024  8009  1980-01-19 12  1980-01-25 12  133  280  0933   1250          90  BRIAN
1025  8010  1980-01-25 00  1980-01-28 00  138  231  1045   1130              CLARA
1026  8011  1980-01-28 12  1980-02-01 12  115  230  1162   1255          85  DEAN
1027  8012  1980-02-01 12  1980-02-07 00  140  292  0580   0700         100  JACINTHE
1028  8013  1980-02-02 00  1980-02-05 12  122  220  1610   1768          40  RAE
1029  8014  1980-02-11 00  1980-02-18 00  162  222  1481   1605          55  RUTH
1030  8015  1980-02-14 12  1980-02-17 18  170  217  1201   1250          80  ENID
1031  8016  1980-02-20 12  1980-02-28 00  120  267  0865   1036          95  FRED
1032  8017  1980-02-21 00  1980-03-03 12  160  385  1512   1750W        100  SIMON
1033  8018  1980-02-25 12  1980-03-13 00  146  292  0419   0609          60  KOLIA
1034  8019  1980-03-08 00  1980-03-17 00  116  322  0559   0675         100  LAURE
1035  8020  1980-03-10 00  1980-03-16 12  135  500  1588   1730W         70  SINA
1036  8021  1980-03-14 00  1980-03-19 00  098  137  1338   1377          45  DORIS-GLORIA
1037  8022  1980-03-14 12  1980-03-20 00  102  150  0500   0715          40  198022
1038  8023  1980-03-21 00  1980-03-27 12  120  320  1695   1540W         60  TIA
1039  8024  1980-03-21 12  1980-03-28 00  160  298  0994   1175         110  198024
1040  8025  1980-03-25 00  1980-03-27 00  110  158  1345   1394              198025
1041  8026  1980-03-25 00  1980-03-29 00  090  187  1700   1660W         60  VAL
1042  8027  1980-03-27 12  1980-03-30 12  104  143  1345   1398              198027
1043  8028  1980-04-01 00  1980-04-08 00  143  286  1775   1590W         50  WALLY
1044  8101  1980-11-09 06  1980-11-14 06  090  141  0653   0840              ALICE-ADELAIDE
1045  8102  1980-11-22 06  1980-12-01 06  090  127  0409   0820              BETTINA
1046  8103  1980-12-02 12  1980-12-09 12  139  191  0485   0840              BERT-CHRISTELLE
1047  8104  1980-12-13 00  1980-12-18 00  111  180  1020   1165              CAROL
1048  8105  1980-12-17 00  1980-12-19 12  130  145  0555   0591              DIANA
1049  8106  1980-12-23 00  1980-12-29 00  100  222  1050   1250              FELIX
1050  8107  1980-12-28 12  1981-01-01 12  220  322  0360   0600              EDWIG
1051  8108  1981-01-04 00  1981-01-10 12  106  331  0560   0616         105  FLORINE
1052  8109  1981-01-11 18  1981-01-16 18  125  268  1769   1795W         75  ARTHUR
1053  8110  1981-01-12 06  1981-01-21 06  123  257  1088   1173         100  MABEL
1054  8111  1981-01-14 12  1981-01-18 00  092  177  0779   0798          45  GAELLE
1055  8112  1981-01-21 18  1981-01-27 18  128  211  1547   1687          25  198112
1056  8113  1981-01-28 00  1981-02-04 12  117  260  0420   0696          45  HELYETTE
1057  8114  1981-01-31 00  1981-02-03 00  190  215  1776W  1707W             BETSY
1058  8115  1981-02-08 06  1981-02-15 06  085  260  1477   1769          75  CLIFF
1059  8116  1981-02-08 18  1981-02-15 06  130  239  1205   1496          40  EDDIE
1060  8117  1981-02-16 12  1981-02-23 12  124  277  0438   0559          55  IADINE
1061  8118  1981-02-20 00  1981-02-24 00  143  354  1795W  1576W             DAMAN
1062  8119  1981-02-24 18  1981-03-05 06  155  220  1044   1157         100  NEIL
1063  8120  1981-02-25 18  1981-03-08 06  150  314  1450   1676          75  FREDA
1064  8121  1981-03-01 06  1981-03-03 18  062  164  1761   1668W         50  ESAU
1065  8122  1981-03-01 12  1981-03-10 00  174  299  0471   0701          80  JOHANNE
1066  8123  1981-03-09 00  1981-03-13 00  193  275  1595W  1395W             TAHMAR
1067  8124  1981-03-10 18  1981-03-18 18  115  165  1009   1330         100  MAX
1068  8125  1981-03-20 00  1981-03-23 00  165  235  1562W  1500W             FRAN
1069  8126  1981-03-28 00  1981-04-06 00  066  281  0487   0569          40  KLARA
1070  8127  1981-04-04 00  1981-04-13 12  053  291  0868   0964         120  OLGA
1071  8128  1981-04-06 00  1981-04-14 12  143  194  0549   0621          40  LISA
1072  8129  1981-05-22 00  1981-05-30 12  063  177  0891   0958          35  PADDY
1073  8201  1981-07-25 12  1981-07-28 12  100  125  0846   0867          30  198201
1074  8202  1981-10-21 06  1981-10-27 06  080  194  0806   0859          85  ALEX
1075  8203  1981-11-03 18  1981-11-11 18  080  127  0780   0929          80  BESSI-ARMELLE
1076  8204  1981-12-05 00  1981-12-07 00  117  175  1180   1250          45  EMELIA
1077  8205  1981-12-18 00  1981-12-24 00  110  180  0381   0565              BENEDICTE
1078  8206  1981-12-19 00  1981-12-27 00  089  233  1618   1699              GYAN
1079  8207  1981-12-29 00  1982-01-04 12  095  145  0759   0788          45  CLARISSEE
1080  8208  1982-01-06 00  1982-01-21 00  126  280  0584   1029         120  CHRIS-DAMIA
1081  8209  1982-01-11 12  1982-01-16 00  077  122  0935   0993          35  DAPHNE-FIFI
1082  8210  1982-01-13 06  1982-01-18 06  130  165  1122   1163          50  ERROL
1083  8211  1982-01-14 18  1982-01-18 06  117  202  1205   1324          40  BRUNO
1084  8212  1982-01-18 18  1982-01-20 18  114  188  1067   1192          50  198212
1085  8213  1982-01-18 18  1982-01-21 18  206  342  1130   1175          35  198213
1086  8214  1982-01-25 18  1982-02-06 06  171  258  1541   1722          65  ABIGAIL
1087  8215  1982-01-25 18  1982-02-01 18  169  318  1732   1787          70  HETTIE
1088  8216  1982-01-30 00  1982-02-06 12  150  192  0358   0652          45  ELECTRE
1089  8217  1982-01-30 18  1982-02-02 06  188  238  1145   1223          35  GRAHAM
1090  8218  1982-02-05 00  1982-02-05 18  135  159  1351   1380              CORAL
1091  8219  1982-02-14 06  1982-02-18 06  116  145  1082   1115          35  HARRIET
1092  8220  1982-02-22 12  1982-02-25 12  226  337  0362   0488          45  198220
1093  8221  1982-02-26 18  1982-03-07 06  164  251  1112   1222          65  IAN
1094  8222  1982-02-28 00  1982-03-03 12  130  233  1770W  1694W             ISAAC
1095  8223  1982-03-15 12  1982-03-20 00  108  207  0891   0963          40  198223
1096  8224  1982-03-16 06  1982-03-25 18  122  273  0388   0547          75  JUSTINE
1097  8225  1982-03-31 18  1982-04-09 06  032  348  1565   1797          95  BERNIE
1098  8226  1982-04-04 12  1982-04-13 12  110  180  1383   1530          70  DOMINIC
1099  8227  1982-04-23 06  1982-05-02 06  062  193  0753   0854         100  KARLA
1100  8228  1982-05-11 06  1982-05-18 06  084  144  1563   1619          40  CLAUDIA
1101  8301  1982-07-04 18  1982-07-06 18  062  077  0516   0563          30  198301
1102  8302  1982-10-31 12  1982-11-08 00  097  181  1620   1714          65  JOTI
1103  8303  1982-11-07 18  1982-11-13 06  108  174  1720   1788          40  KINA
1104  8304  1982-11-29 12  1982-12-06 00  085  243  0542   0644          65  BEMANY
1105  8305  1982-12-10 00  1982-12-16 00  090  239  1600W  1520W         55  LISA
1106  8306  1982-12-21 00  1982-12-30 00  089  260  0601   0727          65  DADAFY
1107  8307  1983-01-04 06  1983-01-10 18  137  237  1147   1273          80  JANE
1108  8308  1983-01-10 00  1983-01-16 12  088  206  0379   0472          65  ELINAH
1109  8309  1983-01-13 18  1983-01-24 18  115  221  1426   1608          55  DES
1110  8310  1983-01-18 12  1983-01-30 12  110  198  1712   1782          80  MARK
1111  8311  1983-02-05 12  1983-02-08 12  168  179  0621   0629          35  198311
1112  8312  1983-02-11 12  1983-03-04 12  106  228  1472   1578         100  ELINOR
1113  8313  1983-02-20 12  1983-02-28 12  128  365  1468W  1370W        100  NISHA-ORAMA
1114  8314  1983-02-22 18  1983-03-04 06  134  279  1732   1764W        100  OSCAR
1115  8315  1983-02-25 00  1983-03-02 00  111  200  1674W  1487W         41  PREMA
1116  8316  1983-02-27 12  1983-03-04 00  129  187  1242   1267          55  KEN
1117  8317  1983-03-07 00  1983-03-16 00  113  275  1519W  1335W         90  REWA
1118  8318  1983-03-22 18  1983-03-29 06  112  256  1768   1778W         90  SARAH
1119  8319  1983-03-27 00  1983-04-03 12  077  256  1685W  1560W        102  TOMASI
1120  8320  1983-04-03 06  1983-04-08 06  116  216  1143   1202          60  LENA
1121  8321  1983-04-07 00  1983-04-14 12  103  297  1490W  1356W        100  VEENA
1122  8322  1983-04-15 12  1983-04-23 00  100  235  1399W  1243W         76  WILLIAM
1123  8323  1983-04-19 12  1983-04-30 00  087  171  0804   0958          60  NAOMI
1124  8324  1983-04-23 18  1983-04-28 06  103  251  1013   1076          55  MONTY
1125  8401  1983-07-11 06  1983-07-15 06  048  121  0797   0887          35  198401
1126  8402  1983-10-24 18  1983-10-31 06  112  268  0860   0972          70  OSCAR
1127  8403  1983-10-25 00  1983-10-31 00  114  257  0865   0967          70  198403
1128  8404  1983-11-10 18  1983-11-14 18  055  194  0900   1036          35  PEARL
1129  8405  1983-11-20 06  1983-11-25 18  081  147  0601   0736          45  198405
1130  8406  1983-11-27 00  1983-11-30 00  117  211  1131   1229          70  QUENTON
1131  8407  1983-12-05 18  1983-12-16 06  096  230  0456   0650         130  ANDRY
1132  8408  1983-12-10 12  1983-12-14 00  141  158  1473   1541          45  FRITZ
1133  8409  1983-12-19 00  1983-12-27 12  075  261  0562   0703          90  BAKOLY
1134  8410  1983-12-19 06  1983-12-22 18  061  122  1181   1286          45  ESTHER
1135  8411  1983-12-26 06  1983-12-29 18  129  214  1700   1741          35  ATU
1136  8412  1984-01-03 12  1984-01-11 00  114  211  1010   1074          45  TIM
1137  8413  1984-01-11 18  1984-01-19 18  150  238  1492   1622          65  GRACE
1138  8414  1984-01-19 00  1984-01-29 12  163  253  0323   0537          55  DOMOINA
1139  8415  1984-01-19 18  1984-01-23 18  111  239  0591   0772          35  EDOARA
1140  8416  1984-01-22 06  1984-01-30 06  079  203  0676   0910          75  VIVIENNE-FANJA
1141  8417  1984-02-01 00  1984-02-05 12  151  229  1596   1743          65  BETI
1142  8418  1984-02-04 18  1984-02-09 06  157  211  1542   1625          60  HARVEY
1143  8419  1984-02-06 00  1984-02-10 00  123  237  0929   1117          55  WILLY
1144  8420  1984-02-07 06  1984-02-20 18  116  291  0489   0758          45  HAJA
1145  8421  1984-02-08 12  1984-02-23 12  145  392  0668   0903         100  ANNETTE-JAMINY
1146  8422  1984-02-12 06  1984-02-15 06  192  264  0380   0412          45  IMBOA
1147  8423  1984-02-12 12  1984-02-15 00  203  263  0384   0411          45  198423
1148  8424  1984-02-16 18  1984-02-23 06  156  264  1039   1198          85  BOBBY
1149  8425  1984-02-20 06  1984-02-26 06  164  251  1475   1586          60  INGRID
1150  8426  1984-02-27 00  1984-03-02 00  156  234  1136   1237          75  CHLOE
1151  8427  1984-03-06 06  1984-03-12 06  106  175  1240   1493          45  JIM
1152  8428  1984-03-07 12  1984-03-18 00  102  262  0784   1032          75  DARYL
1153  8429  1984-03-16 18  1984-03-20 18  162  278  1758   1712W         40  CYRIL
1154  8430  1984-03-19 12  1984-03-23 12  121  168  1354   1433         125  KATHY
1155  8431  1984-04-03 00  1984-04-08 12  129  273  1511   1559          40  LANCE
1156  8432  1984-04-03 18  1984-04-15 06  120  257  0450   0768         100  KAMISY
1157  8501  1984-11-09 06  1984-11-17 06  077  190  0492   0809          45  198501
1158  8502  1984-12-02 06  1984-12-08 06  107  206  0642   0821          55  BOBALAHY
1159  8503  1984-12-08 06  1984-12-12 18  083  214  0985   1180          45  EMMA
1160  8504  1984-12-08 06  1984-12-13 18  100  166  1302   1392          35  198504
1161  8505  1984-12-22 12  1984-12-27 12  174  213  1175   1229          75  FRANK
1162  8506  1984-12-25 18  1984-12-29 06  126  249  1451   1642          70  198506
1163  8507  1984-12-26 06  1984-12-29 00  080  132  1782   1774W         45  MONICA
1164  8508  1984-12-26 12  1984-12-30 00  113  211  1650   1772          45  198508
1165  8509  1985-01-10 00  1985-01-14 00  113  202  1759W  1712W         50  DRENA
1166  8510  1985-01-10 06  1985-01-21 18  108  273  0528   0657          65  CELESTINA
1167  8511  1985-01-12 00  1985-01-20 00  153  335  1611   1495W        100  ERIC
1168  8512  1985-01-12 06  1985-01-17 18  107  189  0770   0868          35  198512
1169  8513  1985-01-14 00  1985-01-21 00  155  208  1509   1677W        105  NIGEL
1170  8514  1985-01-16 18  1985-01-21 18  147  214  1463   1744         100  ODETTE
1171  8515  1985-01-24 12  1985-01-30 12  149  361  1727W  1566W         80  DITRA
1172  8516  1985-01-26 00  1985-02-01 00  126  286  0604   0683          70  FREDA
1173  8517  1985-01-29 00  1985-01-31 12  180  222  1169   1206          55  GERTIE
1174  8518  1985-02-02 00  1985-02-06 12  115  146  1434   1567          35  198518
1175  8519  1985-02-05 06  1985-02-11 06  122  190  0441   0701          50  ESITERA
1176  8520  1985-02-10 18  1985-02-18 06  144  199  0861   1272          55  HUBERT
1177  8521  1985-02-13 00  1985-02-26 00  159  269  0500   0601          65  FELISKA
1178  8522  1985-02-13 06  1985-02-21 06  120  259  0945   1055          50  ISOBEL
1179  8523  1985-02-13 12  1985-02-19 00  120  149  0441   0482          50  GERIMENA
1180  8524  1985-02-16 06  1985-02-26 06  126  335  0953   1243          75  198524
1181  8525  1985-02-18 12  1985-02-21 00  118  185  0757   0867          35  JACOB
1182  8526  1985-02-19 06  1985-02-23 06  127  239  1452   1561          45  PIERRE
1183  8527  1985-03-04 06  1985-03-08 18  166  342  1707   1690W         55  GAVIN
1184  8528  1985-03-06 12  1985-03-14 12  114  259  0842   0935         115  KIRSTY
1185  8529  1985-03-08 06  1985-03-10 06  123  200  1177   1235          55  LINDSAY
1186  8530  1985-03-12 00  1985-03-19 00  117  356  1646   1716W        135  HINA
1187  8531  1985-03-19 06  1985-04-03 18  132  155  1045   1398         120  SANDY
1188  8532  1985-03-28 12  1985-04-04 12  131  149  1351   1504          60  TANYA
1189  8533  1985-04-10 12  1985-04-19 00  114  188  0501   0728         110  HELISAONINA
1190  8534  1985-04-11 06  1985-04-14 06  103  140  1290   1358          45  GRETEL
1191  8535  1985-04-12 06  1985-04-18 18  087  190  0989   1108          70  MARGOT
1192  8601  1985-09-22 06  1985-09-29 18  073  106  0553   0797          40  198601
1193  8602  1985-11-25 06  1985-12-06 18  079  152  1007   1148          75  NICHOLAS
1194  8603  1985-12-11 18  1985-12-16 06  122  154  1448   1626          30  198603
1195  8604  1986-01-06 12  1986-01-10 00  184  215  0351   0420          50  198604
1196  8605  1986-01-07 00  1986-01-16 12  072  275  0795   0833         110  DELIFININA
1197  8606  1986-01-07 06  1986-01-15 18  106  214  0546   0671          70  COSTA
1198  8607  1986-01-10 06  1986-01-13 18  107  128  0963   0996          35  OPHELIA
1199  8608  1986-01-11 12  1986-01-14 12  122  173  1161   1302          35  198608
1200  8609  1986-01-19 12  1986-01-24 00  143  193  1235   1279          45  HECTOR
1201  8610  1986-01-20 12  1986-01-22 00  145  186  1102   1146          35  PANCHO
1202  8611  1986-01-23 12  1986-01-25 00  174  242  1478   1621          45  VERNON
1203  8612  1986-01-28 18  1986-02-01 18  122  185  1453   1481          90  WINIFRED
1204  8613  1986-01-30 00  1986-02-11 00  117  356  0533   0668         115  ERINESTA
1205  8614  1986-02-05 06  1986-02-11 06  100  241  0785   0821          55  FILOMENA
1206  8615  1986-02-05 12  1986-02-09 12  210  318  1388W  1320W         55  JUNE
1207  8616  1986-02-06 06  1986-02-08 00  169  197  1551   1660          75  198616
1208  8617  1986-02-06 12  1986-02-14 12  174  262  1643W  1490W         75  IMA
1209  8618  1986-02-07 06  1986-02-10 18  129  214  1580   1769W         45  KELI
1210  8619  1986-02-17 18  1986-02-20 18  146  285  1124   1141          50  RHONDA
1211  8620  1986-02-18 12  1986-02-25 00  178  416  0400   0481          85  GISTA
1212  8621  1986-02-22 06  1986-02-25 18  149  233  1062   1145          50  SELWYN
1213  8622  1986-02-27 00  1986-03-01 00  158  183  1062   1166          35  TIFFANY
1214  8623  1986-03-02 06  1986-03-08 18  186  265  1593   1800          45  LUSI
1215  8624  1986-03-02 12  1986-03-09 00  136  274  1093   1247         105  VICTOR
1216  8625  1986-03-03 18  1986-03-09 18  158  236  1508   1791W         45  ALFRED
1217  8626  1986-03-07 12  1986-03-20 00  106  277  0380   0797         110  HONORININA
1218  8627  1986-03-13 06  1986-03-15 18  154  189  0764   0782          35  IARIMA
1219  8628  1986-03-25 12  1986-04-02 00  130  250  0575   0911         105  JEFOTRA
1220  8629  1986-04-07 00  1986-04-13 12  108  198  0834   1021          75  KRISOSTOMA
1221  8630  1986-04-09 18  1986-04-14 18  119  227  1683   1704W         75  MARTIN
1222  8631  1986-04-14 18  1986-04-17 00  118  159  1709   1754          30  198631
1223  8632  1986-04-23 06  1986-04-26 06  112  159  1458   1538          70  MAMU
1224  8633  1986-05-04 06  1986-05-12 06  057  228  0896   0984          95  BILLY
1225  8701  1986-07-30 12  1986-08-03 12  068  077  0732   0848          45  198701
1226  8702  1986-11-20 18  1986-11-25 12  103  175  1687   1774          55  OSEA
1227  8703  1986-12-12 06  1986-12-17 12  115  230  1660   1729          55  PATSY
1228  8704  1986-12-22 00  1987-01-01 06  085  250  1760   1764W         90  RAJA
1229  8705  1986-12-27 06  1987-01-05 00  135  268  1632W  1502W         65  SALLY
1230  8706  1987-01-06 06  1987-01-12 12  057  114  0759   0801          45  198706
1231  8707  1987-01-09 06  1987-01-13 00  078  127  0947   0995          55  198707
1232  8708  1987-01-15 00  1987-01-20 06  089  224  1726W  1619W        100  TUSI
1233  8709  1987-01-16 12  1987-01-24 00  134  382  0630   0751          75  ALININA
1234  8710  1987-01-16 18  1987-01-21 00  165  258  1176   1219          55  CONNIE
1235  8711  1987-01-19 00  1987-01-22 12  124  177  1320   1398          30  IRMA
1236  8712  1987-01-31 12  1987-02-05 00  148  182  1173   1240          50  DAMIEN
1237  8713  1987-02-03 00  1987-02-05 12  157  162  1731W  1643W         40  198713
1238  8714  1987-02-04 00  1987-02-08 12  122  220  1604   1750          75  UMA
1239  8715  1987-02-04 18  1987-02-13 00  119  168  1352   1420          65  JASON
1240  8716  1987-02-08 18  1987-02-09 18  185  261  1736   1792W         25  VELI
1241  8717  1987-02-10 12  1987-02-16 00  207  237  0518   0565          45  CLOTILDA
1242  8718  1987-02-21 12  1987-02-26 00  151  220  1207   1274          60  ELSIE
1243  8719  1987-02-28 06  1987-03-02 06  120  279  1639W  1539W         40  198719
1244  8720  1987-02-27 00  1987-03-07 00  099  314  1725   1483W         65  WINI
1245  8721  1987-03-02 12  1987-03-15 12  119  297  0713   0770          75  DAODO
1246  8722  1987-03-05 12  1987-03-12 00  109  202  1636   1695          65  YALI
1247  8723  1987-04-06 00  1987-04-17 00  085  199  1081   1437          65  KAY
1248  8724  1987-04-22 06  1987-04-26 18  264  313  0416   0571          75  198724
1249  8725  1987-04-19 18  1987-04-26 12  094  262  1791   1578W         55  ZUMAN
1250  8726  1987-04-20 00  1987-04-26 12  073  150  0712   0749          45  198726
1251  8727  1987-05-20 18  1987-05-27 00  100  216  1562   1669          45  BLANCHE
1252  8728  1987-06-25 00  1987-06-27 00  073  099  0856   0874          30  198728
1253  8801  1987-10-31 06  1987-11-09 18  038  130  0613   0862          55  198801
1254  8802  1987-11-20 18  1987-11-26 06  060  145  0396   0496          40  198802
1255  8803  1987-12-05 18  1987-12-15 00  071  185  0739   0952          55  ARINY
1256  8804  1987-12-18 18  1987-12-22 18  075  152  1765   1775W         35  198804
1257  8805  1987-12-24 06  1988-01-01 12  101  159  0498   0701          35  BERNANDRO
1258  8806  1988-01-03 00  1988-01-15 00  106  254  1531   1711          70  AGI
1259  8807  1988-01-06 00  1988-01-14 00  036  252  1642   1785W        140  ANNE
1260  8808  1988-01-11 18  1988-01-18 18  103  233  0428   0588          65  CALIDERO
1261  8809  1988-01-21 00  1988-02-01 12  116  346  0382   0797         115  DOAZA
1262  8810  1988-01-29 06  1988-02-02 06  081  212  0939   0979          65  FREDERIC
1263  8811  1988-02-08 06  1988-02-17 18  156  191  0776   1020          90  GWENDA
1264  8812  1988-02-20 06  1988-02-29 18  137  199  1472   1587          45  CHARLIE
1265  8813  1988-02-23 18  1988-03-05 12  104  292  1681   1795         105  BOLA
1266  8814  1988-02-24 06  1988-03-02 06  109  193  0360   0499          85  198814
1267  8815  1988-02-28 18  1988-03-03 06  169  342  1589W  1471W         45  CILLA
1268  8816  1988-03-12 00  1988-03-24 00  076  320  0630   0880         130  GASITAO
1269  8817  1988-03-17 00  1988-03-20 18  100  144  0505   0565          45  198817
1270  8818  1988-03-25 00  1988-04-01 06  140  210  0379   0600          40  HELY
1271  8819  1988-04-08 12  1988-04-16 18  149  314  1698   1762          70  DOVI
1272  8820  1988-05-08 06  1988-05-14 12  121  153  0641   0681          40  IARISENA
1273  8821  1988-05-17 18  1988-05-20 18  090  253  0910   1080          35  198821
1274  8901  1988-10-30 06  1988-11-08 00  076  146  0760   0835          75  ADELININA
1275  8902  1988-11-05 06  1988-11-20 12  061  185  0654   0997         100  BARISAONA
1276  8903  1988-12-12 06  1988-12-18 00  140  227  1151   1260          85  ILONA
1277  8904  1988-12-29 06  1989-01-04 00  178  277  1470   1700          60  DELILAH
1278  8905  1989-01-06 06  1989-01-10 00  130  211  1764W  1711W         45  GINA
1279  8906  1989-01-06 06  1989-01-15 06  148  210  0407   0448          75  198906
1280  8907  1989-01-17 18  1989-01-26 06  095  285  0709   0834         115  EDME
1281  8908  1989-01-24 06  1989-02-01 06  110  305  0503   0662          90  FIRINGA
1282  8909  1989-02-05 00  1989-02-10 12  110  245  1031   1099          75  KIRRILY
1283  8910  1989-02-06 06  1989-02-22 00  155  430  1574   1656         130  HARRY
1284  8911  1989-02-14 00  1989-03-01 06  123  338  0713   1013         125  HANITRA
1285  8912  1989-02-17 06  1989-02-22 12  138  246  0673   0762          65  GIZELA
1286  8913  1989-02-22 00  1989-03-02 12  150  238  1660   1729         100  IVY
1287  8914  1989-02-23 00  1989-03-01 00  265  339  1418W  1345W         90  198914
1288  8915  1989-02-23 18  1989-02-27 18  215  269  1604W  1538W         90  JUDY
1289  8916  1989-02-23 00  1989-02-25 00  171  236  1162   1187          45  198916
1290  8917  1989-02-28 18  1989-03-05 06  090  265  0967   1016          35  MARCIA
1291  8918  1989-03-07 12  1989-03-11 12  173  322  0414   0480          35  198918
1292  8919  1989-03-21 06  1989-03-31 06  160  261  0492   0656          65  JINABO
1293  8920  1989-03-24 12  1989-04-01 00  172  325  1084   1220         100  NED
1294  8921  1989-03-26 12  1989-04-09 00  080  290  0531   0806         105  KRISSY
1295  8922  1989-03-30 18  1989-04-03 06  193  245  1771   1740W         50  KERRY
1296  8923  1989-03-29 12  1989-04-05 00  099  220  1440   1582         120  AIVU
1297  8924  1989-04-04 00  1989-04-09 06  045  161  0697   0855          45  LEZISSY
1298  8925  1989-04-06 00  1989-04-13 06  120  258  1591   1689         110  LILI
1299  8926  1989-04-16 06  1989-04-23 12  106  258  1162   1276         140  ORSON
1300  8927  1989-05-01 12  1989-05-11 00  091  156  1351   1619          50  MEENA
1301  8928  1989-05-06 00  1989-05-13 00  117  130  1484   1778          35  ERNIE
1302  9001  1989-07-07 12  1989-07-11 18  070  082  0855   0876          30  199001
1303  9002  1989-07-12 18  1989-07-18 00  064  175  0918   0957          35  199002
1304  9003  1989-09-21 18  1989-09-27 06  050  194  0605   0850          30  199003
1305  9004  1989-10-11 00  1989-10-17 12  066  109  0667   0797          30  199004
1306  9005  1989-10-28 18  1989-11-02 06  051  098  0787   0862          35  199005
1307  9006  1989-11-04 18  1989-11-13 12  060  215  0936   0999          65  PEDRO
1308  9007  1989-12-12 06  1989-12-20 00  100  217  1327   1621          60  FELICITY
1309  9008  1989-12-14 18  1990-01-05 18  059  266  0435   0650         135  ALIBERA
1310  9009  1989-12-29 18  1990-01-08 12  050  315  0842   0950          85  BAVOMAVO
1311  9010  1990-01-12 06  1990-01-20 00  130  260  1052   1280          50  SAM
1312  9011  1990-01-24 06  1990-01-29 12  150  386  1118   1234          45  TINA
1313  9012  1990-01-27 00  1990-02-04 12  149  346  1525   1609          65  NANCY
1314  9013  1990-01-28 00  1990-02-09 12  074  311  1798W  1686W        115  OFA
1315  9014  1990-02-01 06  1990-02-10 00  111  170  0569   0661          80  CEZERA
1316  9015  1990-01-30 18  1990-02-08 00  090  176  0668   0745          95  DETY
1317  9016  1990-02-12 00  1990-02-17 00  086  266  1594W  1502W         60  PENI
1318  9017  1990-02-25 00  1990-03-06 00  108  342  1087   1252          70  VINCENT
1319  9018  1990-02-26 18  1990-03-08 06  144  387  0611   0750         100  EDISAONA
1320  9019  1990-02-28 06  1990-03-05 12  108  191  1350   1411          30  GREG
1321  9020  1990-03-03 00  1990-03-06 18  132  217  0907   0977          30  WALTER
1322  9021  1990-03-01 06  1990-03-08 00  106  310  1525   1700          60  HILDA
1323  9022  1990-03-05 18  1990-03-15 06  069  290  0650   0836          45  FELANA
1324  9023  1990-03-11 00  1990-03-24 00  112  284  0745   0980         110  GREGOARA
1325  9024  1990-03-14 12  1990-03-24 00  118  276  0909   1152         130  ALEX
1326  9025  1990-03-14 06  1990-03-23 06  130  171  1416   1700          75  IVOR
1327  9026  1990-03-17 06  1990-03-24 06  115  253  1650   1711W         40  RAE
1328  9027  1990-04-10 12  1990-04-14 18  070  147  0444   0478          45  199027
1329  9028  1990-04-11 18  1990-04-17 00  096  189  0882   0929          40  BESSI
1330  9029  1990-05-09 18  1990-05-23 18  030  106  0528   0809          55  IKONJO
1331  9101  1990-09-19 06  1990-09-25 12  062  088  0572   0738          30  199101
1332  9102  1990-10-15 06  1990-10-20 06  067  090  0685   0737          30  199102
1333  9103  1990-11-23 06  1990-11-29 12  070  207  1730   1727W        125  SINA
1334  9104  1990-11-29 18  1990-12-04 06  080  167  0753   0811          55  199104
1335  9105  1990-12-08 18  1990-12-12 18  100  139  1262   1289          35  LAURENCE
1336  9106  1990-12-15 18  1990-12-27 06  105  210  1462   1647          90  JOY
1337  9107  1991-01-09 06  1991-01-18 00  084  263  0808   0838          65  ALISON
1338  9108  1991-01-13 00  1991-02-04 18  044  361  0606   0955         130  BELLA
1339  9109  1991-02-15 18  1991-02-23 12  150  170  1094   1211          50  CHRIS
1340  9110  1991-02-16 00  1991-02-18 06  160  221  0406   0451          50  CYNTHIA
1341  9111  1991-02-15 00  1991-02-27 00  175  253  1087   1500          60  DAPHNE
1342  9112  1991-02-23 06  1991-03-04 06  240  429  0355   0469          90  DEBRA
1343  9113  1991-02-24 12  1991-03-06 12  120  179  1450   1509          55  KELVIN
1344  9114  1991-02-26 00  1991-03-04 00  115  266  0861   0939          60  ELMA
1345  9115  1991-03-03 06  1991-03-07 06  091  201  1537   1681          30  199115
1346  9116  1991-03-14 12  1991-03-21 00  109  225  1575   1656          30  199116
1347  9117  1991-03-20 18  1991-04-02 00  058  351  0795   0951          90  FATIMA
1348  9118  1991-03-24 00  1991-03-31 18  102  182  0902   1018         110  ERROL
1349  9119  1991-04-08 18  1991-04-19 00  094  221  1097   1317          95  MARIAN
1350  9120  1991-04-14 18  1991-04-21 00  121  330  1021   1127          55  FIFI
1351  9121  1991-05-07 00  1991-05-12 12  068  185  1540   1657          80  LISA
1352  9122  1991-06-06 12  1991-06-13 12  090  119  0662   0800          40  GRITELLE
1353  9201  1991-09-10 06  1991-09-13 06  088  113  0797   0815          45  199201
1354  9202  1991-10-11 12  1991-10-21 06  076  114  0488   0636          35  199202
1355  9203  1991-11-12 18  1991-11-21 18  071  177  1625   1717          95  TIA
1356  9204  1991-11-20 06  1991-11-26 12  081  164  0665   0737          45  199204
1357  9205  1991-12-01 00  1991-12-12 12  044  152  0927   1048         120  GRAHAM
1358  9206  1991-12-04 06  1991-12-13 12  084  297  1795W  1515W        125  VAL
1359  9207  1991-12-05 00  1991-12-13 06  100  242  1594W  1420W        105  WASA
1360  9208  1991-12-15 00  1991-12-17 06  177  194  1360W  1325W         45  ARTHUR
1361  9209  1991-12-17 12  1991-12-26 06  075  189  0660   0796         105  ALEXANDRA
1362  9210  1991-12-30 18  1992-01-02 18  136  154  0492   0594          45  BRYNA
1363  9211  1992-01-04 18  1992-01-15 12  070  318  1573   1720          95  BETSY
1364  9212  1992-01-06 06  1992-01-11 12  130  141  1340   1450          55  MARK
1365  9213  1992-01-16 18  1992-01-18 06  116  190  1625W  1537W         35  199213
1366  9214  1992-02-05 06  1992-02-09 12  105  284  1451W  1263W         70  CLIFF
1367  9215  1992-02-08 18  1992-02-13 00  166  244  0612   0691          45  CELESTA
1368  9216  1992-02-12 18  1992-02-14 06  137  164  1166   1281          25  199216
1369  9217  1992-02-13 00  1992-02-19 18  086  329  1557   1790W         85  DAMAN
1370  9218  1992-02-19 00  1992-02-21 00  193  232  1498   1552          35  199218
1371  9219  1992-02-22 00  1992-02-24 18  186  230  0708   0730          35  DAVILIA
1372  9220  1992-02-24 18  1992-03-08 12  112  366  0850   1042         120  HARRIET
1373  9221  1992-02-24 06  1992-03-07 12  132  361  1594   1690         130  ESAU
1374  9222  1992-02-23 18  1992-03-03 18  118  283  0610   0845         120  FARIDA
1375  9223  1992-02-23 18  1992-03-04 06  116  261  1145   1197         115  IAN
1376  9224  1992-02-26 12  1992-03-03 06  148  188  0575   0629          35  GERDA
1377  9225  1992-03-04 00  1992-03-17 06  104  253  1514   1763W        140  FRAN
1378  9226  1992-03-13 18  1992-03-19 00  115  308  1747W  1593W         60  GENE
1379  9227  1992-03-23 18  1992-03-29 06  100  293  1494W  1281W         55  HETTIE
1380  9228  1992-04-04 18  1992-04-15 12  083  140  1230   1336         120  NEVILLE
1381  9229  1992-04-05 06  1992-04-18 12  053  173  0828   1008         120  JANE-IRNA
1382  9230  1992-04-27 06  1992-05-02 12  103  258  1684   1793W         65  INNIS
1383  9301  1992-09-25 00  1992-10-01 12  048  148  0797   0897          65  AVIONA
1384  9302  1992-10-17 12  1992-10-21 12  089  133  0793   0830          45  BABIE
1385  9303  1992-12-03 06  1992-12-13 00  040  269  1730   1750W        110  JONI
1386  9304  1992-11-26 00  1992-12-11 00  066  109  0429   0824          35  199304
1387  9305  1992-12-17 00  1992-12-23 12  112  161  0818   1002          45  KEN
1388  9306  1992-12-21 12  1993-01-04 18  114  213  1391   1693W         75  NINA
1389  9307  1992-12-23 06  1993-01-05 00  067  305  1613   1697W        120  KINA
1390  9308  1993-01-01 12  1993-01-03 06  169  216  1642W  1498W         45  199308
1391  9309  1993-01-10 18  1993-01-14 00  114  202  1543W  1465W         30  199309
1392  9310  1993-01-11 12  1993-01-21 12  087  320  0549   0739          95  COLINA
1393  9311  1993-01-16 12  1993-01-21 00  158  217  0407   0455          35  DESSILIA
1394  9312  1993-01-16 00  1993-01-30 00  063  370  0587   0905         110  EDWINA
1395  9313  1993-01-22 18  1993-02-02 12  135  162  1088   1208          55  LENA
1396  9314  1993-01-25 00  1993-02-09 12  116  232  0954   1372          35  199314
1397  9315  1993-01-29 00  1993-02-04 00  110  232  1781   1650W         90  LIN
1398  9316  1993-02-03 06  1993-02-14 00  124  230  1497   1556         115  OLIVER
1399  9317  1993-02-03 00  1993-02-09 12  138  262  1783   1692W         45  MICK
1400  9318  1993-02-11 12  1993-02-16 12  109  321  1670W  1453W         65  NISHA
1401  9319  1993-02-10 00  1993-02-16 06  160  333  0500   0603          75  FINELLA
1402  9320  1993-02-14 00  1993-02-18 06  129  254  1696   1772W         50  OLI
1403  9321  1993-02-22 06  1993-03-04 00  115  325  1577   1799         100  POLLY
1404  9322  1993-03-10 06  1993-03-22 06  082  251  1555   1703          55  ROGER
1405  9323  1993-03-24 00  1993-04-01 12  118  272  1674   1774W        125  PREMA
1406  9324  1993-04-01 00  1993-04-10 00  131  217  0752   0917         125  JOURDANNE
1407  9325  1993-04-08 18  1993-04-15 00  125  229  1045   1084          50  MONTY
1408  9326  1993-04-29 18  1993-05-07 12  066  113  0682   0745          90  KONITA
1409  9327  1993-05-11 06  1993-05-16 12  042  106  1426   1581          45  ADEL
1410  9401  1993-11-07 18  1993-11-14 00  064  149  0789   0807          60  ALEXINA
1411  9402  1993-11-22 12  1993-11-29 12  072  182  0732   0927          55  BETTINA
1412  9403  1993-12-11 00  1993-12-21 12  084  228  0540   0826          85  CECILIA
1413  9404  1993-12-14 06  1993-12-18 06  133  236  1195   1235          55  NAOMI
1414  9405  1993-12-26 06  1994-01-21 18  039  296  1516   1722         125  REWA
1415  9406  1993-12-29 00  1994-01-07 00  108  182  1115   1293          40  OSCAR
1416  9407  1994-01-06 00  1994-01-07 18  176  200  1785W  1741W         30  199407
1417  9408  1994-01-08 12  1994-01-16 06  154  239  0431   0607          95  DAISY
1418  9409  1994-01-10 06  1994-01-20 18  160  246  0876   1239          95  PEARL
1419  9410  1994-01-11 12  1994-01-19 06  094  303  0643   0746          50  EDEMA
1420  9411  1994-01-18 12  1994-01-29 12  142  241  1615   1772         100  SARAH
1421  9412  1994-01-22 06  1994-01-29 00  116  227  0952   1126          75  QUENTON
1422  9413  1994-01-25 12  1994-02-05 00  110  218  0443   0780         145  GERALDA
1423  9414  1994-01-28 00  1994-02-01 00  110  237  1360   1449          35  SADIE
1424  9415  1994-02-05 06  1994-02-14 12  086  302  0527   0750         105  HOLLANDA
1425  9416  1994-02-06 00  1994-02-19 18  111  271  0601   0951         100  IVY
1426  9417  1994-02-16 00  1994-02-23 06  152  244  1138   1245          35  199417
1427  9418  1994-02-22 00  1994-02-28 12  083  310  1543   1766         115  THEODORE
1428  9419  1994-03-05 18  1994-03-10 18  143  287  0507   0529          50  KELVINA
1429  9420  1994-03-05 00  1994-03-17 18  128  246  0479   0986         130  LITANNE
1430  9421  1994-03-07 12  1994-03-18 00  140  163  0606   1086          90  MARIOLA
1431  9422  1994-03-12 12  1994-03-19 00  100  229  1041   1180         110  SHARON
1432  9423  1994-03-17 18  1994-04-02 00  117  206  0357   0736         120  NADIA
1433  9424  1994-03-19 00  1994-03-26 06  064  243  1706   1756W        105  TOMAS
1434  9425  1994-03-22 00  1994-03-29 06  110  258  1543   1693          55  USHA
1435  9426  1994-03-26 18  1994-04-14 06  078  306  0600   0926         105  ODILLE
1436  9427  1994-03-28 18  1994-04-02 06  107  119  1001   1147          40  TIM
1437  9428  1994-04-05 00  1994-04-13 06  083  215  1050   1289          70  VIVIENNE
1438  9429  1994-04-20 06  1994-04-25 06  080  149  1579   1608          30  199429
1439  9430  1994-04-26 00  1994-05-01 00  048  151  0936   0965          40  WILLY
1440  9501  1994-11-10 18  1994-11-19 06  071  195  1662   1704          60  VANIA
1441  9502  1994-11-21 06  1994-12-02 06  053  252  0606   0763         115  ALBERTINE
1442  9503  1994-12-10 00  1994-12-20 00  090  313  1120   1291         110  ANNETTE
1443  9504  1994-12-13 06  1994-12-17 00  090  246  1670   1714W         35  199504
1444  9505  1994-12-30 00  1995-01-03 18  110  263  1650W  1470W         65  WILLIAM
1445  9506  1994-12-30 12  1995-01-06 12  060  186  0544   0631          55  BENTHA
1446  9507  1995-01-04 18  1995-01-09 18  110  230  0540   0579          40  CHRISTELLE
1447  9508  1995-01-16 18  1995-01-30 12  095  296  0557   0793         100  DORINA
1448  9509  1995-01-19 12  1995-01-27 06  169  330  0380   0456          45  FODAH
1449  9510  1995-01-31 18  1995-02-12 12  116  417  0592   0728          75  GAIL
1450  9511  1995-01-31 18  1995-02-08 00  100  222  0721   0959          40  HEIDA
1451  9512  1995-02-18 00  1995-02-27 12  110  304  1152   1330         110  BOBBY
1452  9513  1995-02-21 18  1995-03-02 00  137  346  0587   0669         100  INGRID
1453  9514  1995-02-28 00  1995-03-07 12  110  308  1524   1602          75  VIOLET
1454  9515  1995-03-03 12  1995-03-07 00  130  192  1336   1406          55  WARREN
1455  9516  1995-03-04 18  1995-03-12 18  125  146  0415   0473          65  JOSTA
1456  9517  1995-03-04 18  1995-03-15 06  132  289  0526   0584          85  KYLIE
1457  9518  1995-03-15 06  1995-03-17 12  169  308  1753   1674W         30  199518
1458  9519  1995-03-28 18  1995-04-11 00  096  227  0689   0898         125  MARLENE
1459  9520  1995-04-01 00  1995-04-06 00  109  163  1254   1445          25  199520
1460  9521  1995-03-29 18  1995-04-09 06  090  194  1212   1310         125  CHLOE
1461  9522  1995-04-15 12  1995-04-23 12  086  130  1435   1481         110  AGNES
1462  9601  1995-11-15 00  1995-11-25 12  046  172  0750   0970         150  DARYL-AGNIELLE
1463  9602  1995-12-03 00  1995-12-15 06  091  137  0918   1136          40  EMMA
1464  9603  1995-12-06 00  1995-12-14 00  103  286  1130   1214         115  FRANK
1465  9604  1995-12-14 00  1995-12-21 18  117  257  1201   1352          75  GERTIE
1466  9605  1996-01-02 06  1996-01-09 12  150  247  1329   1499          80  BARRY
1467  9606  1995-12-31 18  1996-01-15 06  080  193  0343   0750         135  BONITA
1468  9607  1996-01-07 00  1996-01-12 00  105  150  0785   0992          75  HUBERT-CORYNA
1469  9608  1996-01-15 00  1996-01-19 00  180  252  1775W  1648W         45  YASI
1470  9609  1996-01-21 00  1996-01-30 18  145  197  1468   1642          65  CELESTE
1471  9610  1996-01-25 12  1996-02-08 12  140  257  1054   1427          90  JACOB
1472  9611  1996-01-25 00  1996-01-31 18  125  169  1144   1249          45  ISOBEL
1473  9612  1996-02-05 18  1996-02-10 12  085  129  0881   0949          35  199612
1474  9613  1996-02-10 18  1996-02-20 00  121  155  1392   1522          45  DENNIS
1475  9614  1996-02-11 18  1996-02-19 12  070  180  0423   0530          75  DOLORESSE
1476  9615  1996-02-14 18  1996-02-17 12  142  193  0813   0867          35  199615
1477  9616  1996-02-18 00  1996-02-29 18  099  220  0475   0717          95  EDWIGE
1478  9617  1996-02-26 00  1996-03-04 12  119  286  0591   0740         115  FLOSSY
1479  9618  1996-03-06 06  1996-03-14 12  158  329  1195   1286         100  KIRSTY
1480  9619  1996-03-07 06  1996-03-17 00  125  249  1334   1520          45  ETHEL
1481  9620  1996-03-09 06  1996-03-11 12  210  298  1666   1640W         40  ZAKA
1482  9621  1996-03-04 06  1996-03-14 00  120  255  1550   1733          55  ATU
1483  9622  1996-03-17 18  1996-03-23 18  130  222  0574   0696          35  GUYLIANNE
1484  9623  1996-03-19 06  1996-03-30 06  119  332  1641   1792W        105  BETI
1485  9624  1996-04-02 00  1996-04-11 06  155  218  0538   0745          95  HANSELLA
1486  9625  1996-04-03 12  1996-04-12 00  087  305  1148   1330         125  OLIVIA
1487  9626  1996-04-06 12  1996-04-18 12  127  175  0526   0851         140  ITELLE
1488  9627  1996-04-12 00  1996-04-19 18  123  242  1074   1290          30  199627
1489  9628  1996-04-30 18  1996-05-06 18  039  225  0892   1005          60  JENNA
1490  9701  1996-07-08 06  1996-07-13 06  070  156  0919   0955          35  LINDSAY
1491  9702  1996-08-14 18  1996-08-21 06  048  124  0843   0901          45  199702
1492  9703  1996-09-02 18  1996-09-09 18  083  096  0682   0842          40  199703
1493  9704  1996-10-15 00  1996-10-23 06  046  135  0458   0930          65  ANTOINETTE
1494  9705  1996-10-28 00  1996-11-12 12  067  233  0742   0962         125  MELANIE-BELLAMINE
1495  9706  1996-11-19 00  1996-12-01 06  040  249  1583   1700          50  CYRIL
1496  9707  1996-11-20 00  1996-12-01 12  035  089  0689   1037          65  CHANTELLE
1497  9708  1996-12-01 12  1996-12-10 06  065  247  0552   0689         120  DANIELLA
1498  9709  1996-12-03 12  1996-12-16 12  030  196  0697   0950          55  ELVINA
1499  9710  1996-12-10 12  1996-12-17 06  087  203  1234   1290          45  NICHOLAS
1500  9711  1996-12-13 18  1996-12-27 06  100  171  1080   1177          55  OPHELIA
1501  9712  1996-12-22 06  1997-01-16 12  100  195  0714   1395          85  PHIL
1502  9713  1996-12-19 06  1996-12-30 18  049  421  1584   1780          90  FERGUS
1503  9714  1996-12-25 18  1997-01-09 00  120  274  0430   0600          60  FABRIOLA
1504  9715  1996-12-30 00  1997-01-11 12  110  296  1184   1371          80  RACHEL
1505  9716  1997-01-01 00  1997-01-11 12  103  451  1587   1755         120  DRENA
1506  9717  1997-01-08 12  1997-01-17 12  132  405  1741W  1657W         70  EVAN
1507  9718  1997-01-07 12  1997-01-13 18  157  261  0819   0928          45  199718
1508  9719  1997-01-13 06  1997-02-14 12  083  206  0539   1005         125  PANCHO-HELINDA
1509  9720  1997-01-18 00  1997-01-31 18  111  351  0361   0588         115  GRETELLE
1510  9721  1997-01-17 18  1997-01-30 00  099  171  0678   0740          75  ILETTA
1511  9722  1997-01-20 12  1997-02-03 00  159  371  1709   1731W         65  FREDA
1512  9723  1997-02-01 00  1997-02-17 06  131  380  0401   0550          90  JOSIE
1513  9724  1997-02-08 00  1997-02-12 12  100  189  1468   1550          45  GILLIAN
1514  9725  1997-02-11 00  1997-02-26 06  129  399  0556   0956          65  KARLETTE
1515  9726  1997-02-14 06  1997-02-22 18  110  345  1551   1685          55  HAROLD
1516  9727  1997-02-16 12  1997-02-26 06  121  231  1033   1159          45  199727
1517  9728  1997-02-22 06  1997-02-25 00  120  228  1420   1488          35  ITA
1518  9729  1997-02-21 18  1997-03-01 12  161  501  1711W  1540W         50  199729
1519  9730  1997-02-25 18  1997-03-02 18  149  205  0335   0402          75  LISETTE
1520  9731  1997-03-02 00  1997-03-13 00  083  370  1714   1767W        120  GAVIN
1521  9732  1997-03-03 06  1997-03-29 12  109  208  1447   1580          90  JUSTIN
1522  9733  1997-03-12 00  1997-03-18 18  105  340  1759   1586W         75  HINA
1523  9734  1997-04-15 00  1997-04-19 18  102  225  1681   1656W         55  IAN
1524  9735  1997-04-27 18  1997-05-06 12  090  182  1656   1773          65  JUNE
1525  9736  1997-05-04 12  1997-05-17 12  070  268  0754   1118         100  RHONDA
1526  9737  1997-05-26 18  1997-05-30 06  121  189  1672   1723          35  199737
1527  9738  1997-06-05 00  1997-06-15 06  083  211  1788   1642W        115  KELI
1528  9801  1997-07-18 00  1997-07-24 18  038  098  0704   0787          45  199801
1529  9802  1997-10-04 06  1997-10-13 06  040  260  1689   1794          60  LUSI
1530  9803  1997-10-24 06  1997-10-28 06  105  146  1741   1770          35  199803
1531  9804  1997-10-28 18  1997-11-04 18  075  247  1655W  1458W        100  MARTIN
1532  9805  1997-11-15 06  1997-11-21 00  082  200  1593   1800          70  NUTE
1533  9806  1997-11-21 18  1997-11-27 06  092  203  1577W  1494W         90  OSEA
1534  9807  1997-12-02 00  1997-12-10 00  085  238  1677W  1558W         65  PAM
1535  9808  1997-12-24 12  1997-12-29 00  112  182  1290   1383          40  SID
1536  9809  1997-12-25 18  1998-01-02 18  120  194  0890   1119          65  SELWYN
1537  9810  1998-01-01 12  1998-01-09 00  095  293  1758W  1662W        145  RON
1538  9811  1997-12-20 12  1998-01-09 18  053  362  1698   1674W        140  SUSAN
1539  9812  1998-01-01 12  1998-02-02 06  122  219  1436   1648          90  KATRINA
1540  9813  1998-01-17 06  1998-01-23 00  151  263  0350   0461          35  199813
1541  9814  1998-01-21 18  1998-02-02 06  139  217  1223   1430          50  LES
1542  9815  1998-01-22 12  1998-02-01 12  166  197  1042   1256         120  TIFFANY
1543  9816  1998-01-24 18  1998-01-27 12  124  148  1748W  1719W         40  TUI
1544  9817  1998-01-31 06  1998-02-02 00  177  283  1435W  1245W         65  URSULA
1545  9818  1998-01-31 12  1998-02-04 06  119  246  1557W  1424W         75  VELI
1546  9819  1998-01-31 12  1998-02-04 12  113  170  1738W  1572W         45  WES
1547  9820  1998-02-05 00  1998-02-13 18  127  326  0592   0695         115  ANACELLE
1548  9821  1998-02-01 00  1998-02-10 00  181  293  0356   0461          35  199821
1549  9822  1998-02-04 18  1998-02-18 18  131  271  0745   1352          90  VICTOR-CINDY
1550  9823  1998-02-12 18  1998-02-18 18  168  247  0398   0436          40  BELTANE
1551  9824  1998-02-15 06  1998-02-18 18  193  300  0622   0701          45  199824
1552  9825  1998-02-24 18  1998-02-28 18  144  186  1349   1390          35  MAY
1553  9826  1998-03-04 18  1998-03-09 06  141  231  0620   0721          55  DONALINE
1554  9827  1998-03-04 18  1998-03-18 18  090  257  0772   0925          90  ELSIE
1555  9828  1998-03-13 12  1998-03-20 18  110  236  0586   0655          35  FIONA
1556  9829  1998-03-17 06  1998-03-27 18  111  346  1580   1699          90  YALI
1557  9830  1998-03-19 12  1998-03-31 00  098  166  1437   1587          65  NATHAN
1558  9831  1998-03-28 06  1998-04-06 06  135  241  1616   1722         100  ZUMAN
1559  9832  1998-04-06 06  1998-04-15 00  126  155  0710   0777          70  GEMMA
1560  9833  1998-04-06 06  1998-04-07 12  157  164  0746   0768          30  199833
1561  9834  1998-04-17 00  1998-04-22 12  099  124  0596   0840          40  199834
1562  9835  1998-04-16 00  1998-04-19 12  084  153  1259   1354          40  199835
1563  9836  1998-04-20 00  1998-04-26 18  105  169  1601W  1513W         45  ALAN
1564  9837  1998-04-29 18  1998-05-01 12  175  206  1412W  1350W         35  BART
1565  9838  1998-02-23 00  1998-02-24 12  083  098  1619   1646          25  199838
1566  9901  1998-07-20 00  1998-07-27 06  048  106  0717   0857          35  199901
1567  9902  1998-09-27 12  1998-10-02 18  054  162  0697   0838          35  199902
1568  9903  1998-10-06 00  1998-10-10 12  102  146  0913   0967          45  ZELIA
1569  9904  1998-11-06 06  1998-11-12 18  099  191  0905   0996          70  ALISON
1570  9905  1998-12-01 12  1998-12-07 06  132  246  1149   1201          65  BILLY
1571  9906  1998-12-04 00  1998-12-15 06  088  210  1194   1339         135  THELMA
1572  9907  1998-12-13 12  1998-12-18 06  166  395  1557   1684          35  199907
1573  9908  1998-12-21 00  1998-12-24 00  204  399  1518W  1340W         50  199908
1574  9909  1998-12-22 00  1998-12-28 18  137  323  1786W  1510W         90  CORA
1575  9910  1998-12-23 12  1998-12-30 18  123  166  0834   1004          40  CATHY
1576  9911  1999-01-13 00  1999-01-23 06  128  311  1634   1777         115  DANI
1577  9912  1999-01-15 12  1999-01-19 06  204  322  0388   0460          65  ALDA
1578  9913  1999-01-19 12  1999-01-26 00  168  288  1576   1799W         55  OLINDA
1579  9914  1999-01-21 12  1999-01-29 00  145  259  1502   1696          55  PETE
1580  9915  1999-01-21 12  1999-02-01 18  114  176  0699   1100          80  DAMIEN-BIRENDA
1581  9916  1999-01-24 00  1999-01-27 00  113  150  1381   1387          35  199916
1582  9917  1999-01-29 06  1999-02-05 06  137  222  0499   0963          40  CHIKITA
1583  9918  1999-02-02 00  1999-02-11 12  136  191  1076   1191          40  199918
1584  9919  1999-02-08 18  1999-02-14 12  110  272  1601   1704          45  ELLA
1585  9920  1999-02-10 00  1999-02-13 18  159  171  1393   1484          55  RONA
1586  9921  1999-02-12 12  1999-02-16 18  185  234  0376   0407          45  199921
1587  9922  1999-02-16 18  1999-02-26 06  199  395  1524   1663          95  FRANK
1588  9923  1999-02-24 18  1999-03-01 12  204  269  0354   0452          30  199923
1589  9924  1999-02-26 18  1999-02-28 06  245  276  1560W  1555W         40  GITA
1590  9925  1999-03-01 06  1999-03-15 06  096  231  0510   0906         110  DAVINA
1591  9926  1999-03-03 00  1999-03-10 18  120  149  0709   1214          35  199926
1592  9927  1999-03-11 06  1999-03-18 00  188  243  1643W  1542W         50  HALI
1593  9928  1999-03-15 12  1999-03-20 06  131  288  1108   1155         100  ELAINE
1594  9929  1999-03-15 12  1999-03-19 12  124  161  0730   0752          35  199929
1595  9930  1999-03-16 00  1999-03-23 12  110  306  1143   1323         125  VANCE
1596  9931  1999-03-25 00  1999-04-07 12  119  197  0625   1193         140  FREDERIC-EVRINA
1597  9932  1999-04-03 12  1999-04-08 12  116  231  1166   1263         130  GWENDA
1598  9933  1999-04-17 00  1999-04-25 12  080  193  0772   0933          45  HAMISH
1599  0001  1999-12-10 00  1999-12-17 12  094  208  0974   1218          60  ILSA
1600  0002  1999-12-10 06  1999-12-15 18  126  230  1173   1202         130  JOHN
1601  0003  1999-12-23 12  2000-01-03 00  091  155  0409   0756          65  ASTRIDE
1602  0004  2000-01-03 06  2000-01-12 12  109  289  0672   0836          90  BABIOLA
1603  0005  2000-01-06 00  2000-01-10 12  146  196  1641   1786          70  IRIS
1604  0006  2000-01-18 18  2000-01-23 06  111  215  1155   1269          30  200006
1605  0007  2000-01-23 00  2000-01-28 06  145  328  1717   1647W         65  JO
1606  0008  2000-01-25 00  2000-02-02 12  144  344  0502   0570         120  CONNIE
1607  0009  2000-01-24 12  2000-02-01 18  118  234  1026   1124          85  KIRRILY
1608  0010  2000-01-30 18  2000-02-03 12  111  188  0715   0783          50  DAMIENNE
1609  0011  2000-02-03 00  2000-02-23 12  110  221  0297   1104         115  LEON-ELINE
1610  0012  2000-02-18 18  2000-02-24 06  133  302  0637   0784          65  FELICIA
1611  0013  2000-02-23 12  2000-03-01 00  232  364  1529W  1328W        100  KIM
1612  0014  2000-02-25 06  2000-03-11 00  147  320  1131   1507          65  STEVE
1613  0015  2000-02-27 00  2000-03-05 12  122  205  0435   0625          50  GLORIA
1614  0016  2000-02-29 12  2000-03-08 18  183  241  0916   1196         120  NORMAN
1615  0017  2000-02-29 06  2000-03-06 12  122  163  0803   0876          35  200017
1616  0018  2000-03-04 00  2000-03-08 06  196  399  1666W  1515W         55  LEO
1617  0019  2000-03-07 12  2000-03-11 06  179  282  1760W  1719W         80  MONA
1618  0020  2000-03-14 18  2000-03-19 18  165  241  1041   1186          50  OLGA
1619  0021  2000-03-22 18  2000-04-09 12  144  190  0382   1019         125  HUDAH
1620  0022  2000-03-31 00  2000-04-03 06  142  190  1456   1554          50  TESSI
1621  0023  2000-03-31 00  2000-04-07 00  132  205  1454   1677          50  VAUGHAN
1622  0024  2000-04-11 00  2000-04-21 18  129  154  0909   1274         130  PAUL
1623  0025  2000-04-14 06  2000-04-17 06  182  237  1790   1778W         40  NEIL
1624  0026  2000-04-15 06  2000-04-21 00  144  184  0653   0819          45  INNOCENTE
1625  0027  2000-04-16 18  2000-04-21 00  131  205  1190   1284         125  ROSITA
1626  0101  2000-08-01 00  2000-08-03 12  061  082  0739   0797          35  200101
1627  0102  2000-11-10 06  2000-11-20 06  076  165  0782   0876          35  200102
1628  0103  2000-12-03 00  2000-12-10 18  112  214  1210   1282         110  SAM
1629  0104  2000-12-31 06  2001-01-10 06  087  304  0506   0674         120  ANDO
1630  0105  2001-01-06 00  2001-01-17 12  102  251  0592   0796         100  BINDU
1631  0106  2001-01-17 12  2001-01-26 00  123  253  0569   0865         105  CHARLY
1632  0107  2001-01-27 18  2001-01-31 18  152  250  1192   1280          50  TERRI
1633  0108  2001-02-09 18  2001-02-14 00  106  200  1291   1377          40  WINSOME
1634  0109  2001-02-07 18  2001-02-15 18  133  197  1114   1218          35  VINCENT
1635  0110  2001-02-16 00  2001-02-18 06  168  220  1574   1680          35  200110
1636  0111  2001-02-18 18  2001-02-22 06  189  326  1650W  1502W         45  OMA
1637  0112  2001-02-23 00  2001-03-04 00  155  201  1242   1552          60  ABIGAIL
1638  0113  2001-02-25 06  2001-03-04 18  105  310  1628   1692W        105  PAULA
1639  0114  2001-02-28 18  2001-03-05 06  193  317  1370W  1348W         40  RITA
1640  0115  2001-03-07 18  2001-03-13 00  148  422  0398   0508          90  DERA
1641  0116  2001-04-02 12  2001-04-07 06  106  155  0769   0875          35  200116
1642  0117  2001-04-02 06  2001-04-07 18  098  196  0946   1077          90  WALTER
1643  0118  2001-04-03 00  2001-04-08 12  094  261  0607   0637          75  EVARISTE
1644  0119  2001-04-03 18  2001-04-11 06  118  264  1653   1715          70  SOSE
1645  0120  2001-04-16 00  2001-04-23 12  083  242  1090   1354          65  ALISTAIR
1646  0121  2001-06-20 12  2001-06-23 06  246  300  0339   0419    991   65  200121
1647  0201  2001-10-04 06  2001-10-08 00  097  134  0819   0830    997   35  200201
1648  0202  2001-10-24 18  2001-11-01 12  070  123  0786   0975    984   55  ALEX-ANDRE
1649  0203  2001-11-16 00  2001-11-23 00  059  105  1259   1455    997   35  200203
1650  0204  2001-11-20 06  2001-11-24 12  114  129  0769   0831    997   35  200204
1651  0205  2001-11-25 00  2001-12-05 06  065  182  0854   0953    967   75  BESSI-BAKO
1652  0206  2001-11-30 00  2001-12-03 18  208  218  1612W  1588W   997   35  TRINA
1653  0207  2001-12-28 12  2002-01-02 00  104  293  1759W  1676W   944  100  WAKA
1654  0208  2001-12-30 00  2002-01-03 06  193  231  0358   0442    987   50  CYPRIEN
1655  0209  2002-01-03 00  2002-01-04 18  144  170  1382   1392    991   45  BERNIE
1656  0210  2002-01-16 12  2002-01-25 12  068  300  0520   0779    910  130  DINA
1657  0211  2002-01-23 06  2002-01-28 12  117  230  0834   0897    967   75  EDDY
1658  0212  2002-01-31 12  2002-02-11 18  122  264  0775   0897    927  115  FRANCESCA
1659  0213  2002-02-02 18  2002-02-06 12  148  222  1195   1215    916  125  CHRIS
1660  0214  2002-02-10 18  2002-02-13 18  187  274  1560   1717    967   75  CLAUDIA
1661  0215  2002-02-14 12  2002-02-22 18  144  264  0507   0636    922  120  GUILLAUME
1662  0216  2002-02-23 06  2002-02-26 00  165  230  1750   1768    997   35  200216
1663  0217  2002-03-04 18  2002-03-07 06  190  242  1575   1683    987   50  DES
1664  0218  2002-03-05 00  2002-03-14 00  101  304  0504   0666    898  140  HARY
1665  0219  2002-03-13 18  2002-03-16 06  161  232  1608   1771    997   35  200219
1666  0220  2002-03-22 12  2002-03-29 06  079  213  0729   0827    933  110  IKALA
1667  0221  2002-04-05 18  2002-04-11 18  103  235  0881   1026    938  105  DIANNE-JERY
1668  0222  2002-04-09 06  2002-04-15 12  078  161  0980   1292    987   50  BONNIE
1669  0223  2002-05-02 06  2002-05-11 18  073  159  0469   0663    976   65  KESINY
1670  0224  2002-05-09 06  2002-05-14 12  058  108  0946   0976    991   45  ERROL
1671  0225  2002-05-23 06  2002-05-28 06  066  098  1536   1573    997   35  UPIA
1672  0301  2002-09-05 12  2002-09-09 00  035  042  0530   0629    997   35  200301
1673  0302  2002-11-03 06  2002-11-13 00  066  118  0394   0696    991   45  ATANG
1674  0303  2002-11-14 18  2002-11-25 12  063  157  0483   0777    967   75  BOURA
1675  0304  2002-12-01 06  2002-12-05 12  132  212  1783W  1713W   997   35  YOLANDE
1676  0305  2002-12-22 06  2002-12-29 00  079  266  0595   0691    954   90  CRYSTAL
1677  0306  2002-12-24 12  2003-01-01 06  090  219  1692   1783W   879  155  ZOE
1678  0307  2002-12-25 00  2003-01-03 06  028  101  0874   0942   1000   30  200307
1679  0308  2002-12-30 12  2003-01-09 12  147  275  0352   0431    984   55  DELFINA
1680  0309  2003-01-06 12  2003-01-12 12  095  284  0695   0731    976   65  EBULA
1681  0310  2003-01-10 12  2003-01-15 12  095  290  1797   1617W   944  110  AMI
1682  0311  2003-01-21 00  2003-02-01 12  112  346  0421   0811    984   55  FARI
1683  0312  2003-01-24 12  2003-02-05 00  124  243  1497   1693    916  125  BENI
1684  0313  2003-01-25 06  2003-01-31 00  152  256  1726   1648W   997   35  CILLA
1685  0314  2003-02-03 06  2003-02-13 00  117  222  0910   1153    933  110  FIONA
1686  0315  2003-02-04 18  2003-02-11 00  102  262  1692W  1626W   910  130  DOVI
1687  0316  2003-02-07 18  2003-02-15 12  114  279  0536   0670    938  105  GERRY
1688  0317  2003-02-09 06  2003-02-15 06  120  200  0642   0764    954   90  HAPE
1689  0318  2003-02-03 18  2003-02-14 12  094  210  0812   0992    991   45  ISHA
1690  0319  2003-02-24 12  2003-03-04 00  198  239  0325   0429    927  115  JAPHET
1691  0320  2003-02-24 12  2003-03-01 18  166  215  1184   1222    994   40  GRAHAM
1692  0321  2003-03-01 06  2003-03-09 12  128  237  1028   1162    997   35  HARRIET
1693  0322  2003-03-04 00  2003-03-15 06  121  288  1524   1790    910  130  ERICA
1694  0323  2003-03-03 18  2003-03-16 00  107  304  0639   0787    898  140  KALUNDE
1695  0324  2003-03-08 00  2003-03-13 00  106  178  1288   1426    997   35  CRAIG
1696  0325  2003-03-08 18  2003-03-14 12  139  305  1716   1569W   952  110  ESETA
1697  0326  2003-03-29 06  2003-04-08 18  070  234  1127   1306    898  140  INIGO
1698  0327  2003-04-13 00  2003-04-15 06  135  293  1796W  1697W   997   45  FILI
1699  0328  2003-05-02 00  2003-05-10 18  110  229  0488   0657    967   75  MANOU
1700  0329  2003-06-04 00  2003-06-09 00  100  180  1618   1717    954   90  GINA
1701  0401  2003-09-29 06  2003-10-05 06  042  071  0634   0675    991   45  ABAIMBA
1702  0402  2003-11-08 12  2003-11-22 18  049  133  0572   0794    944  100  BENI
1703  0403  2003-12-04 00  2003-12-21 18  093  382  0391   0646    976   65  CELA
1704  0404  2003-12-06 12  2003-12-17 18  075  149  0650   0992    963   80  JANA
1705  0405  2003-12-17 00  2003-12-22 06  093  150  1316   1374    976   65  DEBBIE
1706  0406  2003-12-23 18  2004-01-04 12  064  301  0581   0709    984   55  DARIUS
1707  0407  2003-12-29 12  2004-01-09 12  080  348  1800   1564W   898  140  HETA
1708  0408  2004-01-01 06  2004-01-06 12  164  213  1130   1242    997   35  KEN
1709  0409  2004-01-25 06  2004-02-05 00  152  258  0421   0503    976   65  ELITA
1710  0410  2004-01-26 00  2004-02-07 06  112  264  0616   0790    916  125  FRANK
1711  0411  2004-01-28 00  2004-02-02 06  060  205  0895   0962    991   45  LINDA
1712  0412  2004-02-10 12  2004-02-12 18  139  172  1369   1457    997   35  FRITZ
1713  0413  2004-02-21 00  2004-02-29 06  134  403  1677   1782W   938  105  IVY
1714  0414  2004-02-26 18  2004-03-02 12  192  230  1151   1209    933  110  MONTY
1715  0415  2004-02-29 12  2004-03-02 06  139  147  1343   1393   1000   30  EVAN
1716  0416  2004-03-01 06  2004-03-11 12  116  243  0422   0722    898  140  GAFILO
1717  0417  2004-03-07 12  2004-03-13 12  126  233  0838   0912    976   65  NICKY-HELMA
1718  0418  2004-03-15 00  2004-03-27 18  107  214  1200   1335    922  120  FAY
1719  0419  2004-03-20 12  2004-03-23 00  149  221  1477   1596    997   35  GRACE
1720  0420  2004-03-21 00  2004-03-28 06  125  204  0891   1038    927  115  OSCAR-ITSENG
1721  0421  2004-03-23 06  2004-03-28 12  084  103  0514   0561   1002   25  200421
1722  0422  2004-04-07 06  2004-04-09 00  145  206  1730   1786W   997   35  200422
1723  0423  2004-05-04 00  2004-05-15 00  071  151  0655   0841    976   65  JUBA
1724  0501  2004-08-31 06  2004-09-04 12  038  100  0880   0931    984   55  PHOEBE
1725  0502  2004-10-24 18  2004-10-29 00  082  096  0409   0633    997   35  200502
1726  0503  2004-11-07 06  2004-11-15 00  068  137  0650   0827    976   65  AROLA
1727  0504  2004-11-19 18  2004-12-04 00  074  181  0529   0785    898  140  BENTO
1728  0505  2004-12-03 06  2004-12-06 06  090  143  1046   1128    997   35  200505
1729  0506  2004-12-21 12  2005-01-01 18  059  289  0677   0946    944  105  CHAMBO
1730  0507  2004-12-30 06  2005-01-03 06  136  170  1205   1265    987   50  RAYMOND
1731  0508  2005-01-04 00  2005-01-14 12  099  257  1579   1751    954   90  KERRY
1732  0509  2005-01-06 18  2005-01-10 00  103  160  0987   1011    991   45  SALLY
1733  0510  2005-01-13 06  2005-01-18 12  138  157  1001   1237    997   35  200510
1734  0511  2005-01-15 06  2005-01-21 18  064  169  0629   0891    991   45  DAREN
1735  0512  2005-01-16 12  2005-01-24 06  088  297  0419   0608    944  100  ERNEST
1736  0513  2005-01-22 12  2005-01-26 12  133  167  0967   1118    997   35  TIM
1737  0514  2005-02-01 18  2005-02-05 06  190  335  0575   0643    980   60  GERARD
1738  0515  2005-02-02 18  2005-02-07 18  135  273  1680W  1516W   916  125  MEENA
1739  0516  2005-02-05 00  2005-02-07 18  128  176  1361   1400    987   50  HARVEY
1740  0517  2005-02-04 00  2005-02-08 12  147  164  1157   1176    997   35  VIVIENNE
1741  0518  2005-02-11 06  2005-02-17 06  126  247  1698W  1587W   916  125  NANCY
1742  0519  2005-02-13 00  2005-02-20 06  093  339  1783W  1604W   892  145  OLAF
1743  0520  2005-02-24 18  2005-03-05 00  079  256  1795W  1537W   898  140  PERCY
1744  0521  2005-03-04 18  2005-03-06 18  157  246  1673W  1591W   997   35  RAE
1745  0522  2005-03-04 00  2005-03-17 06  111  175  1268   1489    904  135  INGRID
1746  0523  2005-03-08 18  2005-03-14 00  135  215  1074   1198    954   90  WILLY
1747  0524  2005-03-21 00  2005-03-28 00  120  263  0585   0640    976   65  HENNIE
1748  0525  2005-03-29 12  2005-04-07 06  098  323  0656   0850    984   55  ISANG
1749  0526  2005-04-01 12  2005-04-12 18  101  280  0636   1028    916  125  ADELINE-JULIET
1750  0601  2005-10-13 18  2005-10-17 06  092  151  0769   0842    994   40  200601
1751  0602  2005-11-04 06  2005-11-08 06  072  167  0829   0980    997   35  200602
1752  0603  2005-11-18 06  2005-11-29 06  037  148  0803   0951    927  115  BERTIE-ALVIN
1753  0604  2005-12-17 00  2005-12-29 18  079  235  0598   0918    997   35  200604
1754  0605  2006-01-06 18  2006-01-10 18  120  235  1162   1244    980   60  CLARE
1755  0606  2006-01-11 06  2006-01-14 06  130  315  1786   1663W   994   40  TAM
1756  0607  2006-01-13 12  2006-01-15 06  135  262  1745W  1699W   980   60  URMIL
1757  0608  2006-01-18 12  2006-01-23 12  160  240  1089   1231    987   50  DARYL
1758  0609  2006-01-22 12  2006-02-06 06  146  354  0382   0565    944  100  BOLOETSE
1759  0610  2006-01-27 00  2006-02-02 18  160  313  1474   1749    963   80  JIM
1760  0611  2006-02-10 18  2006-02-17 18  149  322  1769W  1650W   967   75  VAIANU
1761  0612  2006-02-18 00  2006-02-23 18  159  194  0506   0582    991   45  200612
1762  0613  2006-02-22 06  2006-02-24 00  108  115  1445   1470    989   45  KATE
1763  0614  2006-02-22 12  2006-03-02 18  092  197  0769   0818    910  130  CARINA
1764  0615  2006-02-26 18  2006-02-28 12  167  243  1141   1170    997   35  EMMA
1765  0616  2006-03-01 06  2006-03-09 06  130  343  0522   0612    984   55  DIWA
1766  0617  2006-03-16 12  2006-03-21 06  129  198  1388   1600    937  115  LARRY
1767  0618  2006-03-18 00  2006-03-25 06  139  283  1538   1718    963   80  WATI
1768  0619  2006-03-19 00  2006-03-27 00  112  209  1082   1185    927  115  FLOYD
1769  0620  2006-03-23 12  2006-03-31 00  141  233  1150   1290    922  120  GLENDA
1770  0621  2006-04-03 00  2006-04-08 06  139  222  1136   1164    984   55  HUBERT
1771  0622  2006-04-03 12  2006-04-16 12  068  177  0827   0963    985   50  ELIA
1772  0623  2006-04-16 18  2006-04-26 18  111  142  1296   1508    879  155  MONICA
1773  0701  2006-10-20 12  2006-10-26 06  095  157  1674   1717    927  115  XAVIER
1774  0702  2006-11-18 18  2006-11-27 00  121  141  1588   1633    972   70  YANI
1775  0703  2006-11-27 06  2006-12-04 00  073  205  0407   0472    989   45  ANITA
1776  0704  2006-12-01 00  2006-12-03 00  104  140  1631   1650    997   35  200704
1777  0705  2006-12-16 00  2006-12-26 18  073  206  0428   0691    904  135  BONDO
1778  0706  2006-12-29 12  2007-01-04 18  122  208  0480   0578    976   65  CLOVIS
1779  0707  2006-12-31 00  2007-01-03 06  114  187  1143   1208    994   40  ISOBEL
1780  0708  2007-01-21 06  2007-01-24 12  116  263  1648W  1497W   980   60  ZITA
1781  0709  2007-01-21 06  2007-01-27 06  119  288  1769W  1466W   974   65  ARTHUR
1782  0710  2007-01-28 06  2007-02-10 00  085  275  0592   0683    927  115  DORA
1783  0711  2007-02-01 18  2007-02-05 18  118  219  1763   1663W   997   35  200711
1784  0712  2007-02-02 18  2007-02-07 06  148  166  1375   1419    987   50  NELSON
1785  0713  2007-02-05 18  2007-02-12 00  151  236  0501   0647    981   55  ENOK
1786  0714  2007-02-11 18  2007-02-23 12  102  266  0328   0707    922  120  FAVIO
1787  0715  2007-02-19 06  2007-03-03 00  140  329  0484   0794    938  105  GAMEDE
1788  0716  2007-02-20 18  2007-03-01 06  099  298  0774   0915    963   80  HUMBA
1789  0717  2007-02-28 06  2007-03-10 00  121  237  1186   1347    941  110  GEORGE
1790  0718  2007-03-03 00  2007-03-12 18  127  237  1057   1223    967   75  JACOB
1791  0719  2007-03-07 00  2007-03-17 06  116  171  0471   0664    927  120  INDLALA
1792  0720  2007-03-24 06  2007-03-29 06  162  192  1152   1216    944  105  KARA
1793  0721  2007-03-24 18  2007-03-29 18  117  212  1570   1683    970   70  BECKY
1794  0722  2007-03-28 00  2007-04-08 06  131  185  0396   0760    941  110  JAYA
1795  0723  2007-04-02 18  2007-04-06 18  136  280  1768   1671W   982   55  CLIFF
1796  0724  2007-05-15 12  2007-05-23 00  088  112  1384   1578   1000   30  PIERRE
1797  0801  2007-07-28 12  2007-07-31 00  059  123  0866   0917    993   40  200801
1798  0802  2007-11-13 00  2007-11-19 12  103  127  1445   1496    967   75  GUBA
1799  0803  2007-11-12 18  2007-11-24 00  062  139  0869   0932    978   60  LEE-ARIEL
1800  0804  2007-11-17 12  2007-11-27 18  062  178  0531   0769    974   65  BONGWE
1801  0805  2007-12-03 12  2007-12-10 00  119  196  1758   1760W   941  110  DAMAN
1802  0806  2007-12-12 12  2007-12-22 18  134  226  0502   0703    993   40  CELINA
1803  0807  2007-12-17 12  2007-12-21 12  121  212  0820   0905    985   50  DAMA
1804  0808  2007-12-26 00  2008-01-01 18  095  219  1093   1183    978   60  MELANIE
1805  0809  2007-12-29 12  2008-01-04 18  181  268  0401   0428    993   40  ELNUS
1806  0810  2007-12-30 18  2008-01-07 06  132  160  1277   1434    985   50  HELEN
1807  0811  2008-01-08 00  2008-01-11 18  182  248  1758W  1687W   985   50  ELISA
1808  0812  2008-01-15 12  2008-01-21 00  148  331  1628   1755    944  105  FUNA
1809  0813  2008-01-23 12  2008-02-01 12  118  264  0444   0564    959   85  FAME
1810  0814  2008-01-26 00  2008-02-01 12  102  270  0549   0628    956   90  GULA
1811  0815  2008-01-26 00  2008-02-06 18  121  325  1707   1706W   948  100  GENE
1812  0816  2008-02-02 06  2008-02-25 12  106  299  0517   0866    926  130  HONDO
1813  0817  2008-02-03 12  2008-02-11 00  139  173  1005   1133    993   40  200817
1814  0818  2008-02-05 12  2008-02-20 06  102  228  0427   0651    929  125  IVAN
1815  0819  2008-02-10 18  2008-02-20 18  147  268  1134   1222    963   80  NICHOLAS
1816  0820  2008-02-28 18  2008-03-01 12  189  275  1511   1638    996   35  200820
1817  0821  2008-02-26 12  2008-03-07 06  148  253  1091   1314    974   65  OPHELIA
1818  0822  2008-03-02 06  2008-03-14 06  100  256  0392   0644    941  110  JOKWE
1819  0823  2008-03-06 00  2008-03-12 06  120  256  0781   0917    937  115  KAMBA
1820  0824  2008-03-20 00  2008-03-26 00  174  220  1575   1639    996   35  200824
1821  0825  2008-03-20 06  2008-03-28 00  147  235  0559   0636    996   35  LOLA
1822  0826  2008-03-23 18  2008-03-30 06  119  260  1020   1117    948  100  PANCHO
1823  0827  2008-04-17 00  2008-04-19 00  127  186  1575   1659   1000   30  200827
1824  0828  2008-04-20 00  2008-04-24 06  084  148  0963   1068    985   50  ROSIE
1825  0829  2008-04-21 06  2008-04-26 00  080  164  0855   1002    993   40  DURGA
1826  0901  2008-10-15 18  2008-10-24 12  054  124  0435   0704    985   50  ASMA
1827  0902  2008-11-18 00  2008-11-21 12  088  172  0913   1086    978   60  ANIKA
1828  0903  2008-11-18 00  2008-11-20 12  088  108  0773   0876    993   40  BERNARD
1829  0904  2008-12-13 12  2008-12-21 00  091  154  0614   0765    982   55  CINDA
1830  0905  2008-12-17 06  2009-01-04 00  124  179  0890   1288    941  110  BILLY
1831  0906  2009-01-08 06  2009-01-13 12  141  330  0673   0747    982   55  DONGO
1832  0907  2009-01-10 18  2009-01-12 12  162  179  1395   1430    993   40  CHARLOTTE
1833  0908  2009-01-16 12  2009-01-22 00  149  336  0492   0588    993   40  ERIC
1834  0909  2009-01-17 18  2009-01-23 18  200  315  0409   0538    937  115  FANELE
1835  0910  2009-01-24 18  2009-01-28 06  181  294  1152   1201    985   50  DOMINIC
1836  0911  2009-01-26 00  2009-01-29 18  151  239  1784W  1761W   996   35  HETTIE
1837  0912  2009-01-30 12  2009-02-02 12  159  193  1449   1482    996   35  ELLIE
1838  0913  2009-01-31 18  2009-02-11 00  147  323  0517   0706    933  120  GAEL
1839  0914  2009-02-04 06  2009-02-15 12  149  216  0723   1197    982   55  FREDDY
1840  0915  2009-02-15 00  2009-02-19 00  165  364  1598   1730    993   40  INNIS
1841  0916  2009-02-20 00  2009-02-27 06  107  300  0626   0786    974   65  HINA
1842  0917  2009-03-01 00  2009-03-05 18  109  204  0950   1078    996   35  GABRIELLE
1843  0918  2009-03-04 18  2009-03-14 00  126  247  1469   1560    922  135  HAMISH
1844  0919  2009-03-06 12  2009-03-13 12  116  205  0772   0888    996   35  200919
1845  0920  2009-03-10 00  2009-03-14 12  186  374  1593W  1561W   982   55  JONI
1846  0921  2009-03-16 00  2009-03-20 12  177  410  1632W  1470W   978   60  KEN
1847  0922  2009-03-16 18  2009-03-26 12  126  247  0778   1215    948  100  ILSA
1848  0923  2009-03-23 06  2009-03-25 12  146  214  1562   1636    989   45  JASPER
1849  0924  2009-03-23 06  2009-03-29 18  184  239  0342   0427    974   65  IZILDA
1850  0925  2009-04-03 06  2009-04-06 18  155  318  1776W  1680W   982   55  LIN
1851  0926  2009-04-02 18  2009-04-11 18  111  357  0488   0620    974   65  JADE
1852  0927  2009-04-23 06  2009-04-29 00  053  093  1327   1361    989   45  KIRRILY
1853  1001  2009-11-13 12  2009-11-18 18  103  241  0664   0714    944  105  ANJA
1854  1002  2009-11-21 12  2009-11-25 18  085  120  0478   0607    993   40  BONGANI
1855  1003  2009-12-04 06  2009-12-14 12  083  194  0600   0911    937  115  CLEO
1856  1004  2009-12-11 12  2009-12-15 18  103  202  1721   1766W   974   65  MICK
1857  1005  2009-12-12 00  2009-12-26 00  066  152  0619   0858    982   55  DAVID
1858  1006  2009-12-11 12  2009-12-23 18  121  259  1204   1329    926  130  LAURENCE
1859  1007  2010-01-01 12  2010-01-15 00  092  380  0673   0957    918  140  EDZANI
1860  1008  2010-01-19 00  2010-01-23 06  117  185  1221   1246    974   65  MAGDA
1861  1009  2010-01-22 00  2010-01-30 12  148  207  1357   1554    987   45  OLGA
1862  1010  2010-01-27 00  2010-01-31 00  135  201  1732W  1607W   982   55  NISHA
1863  1011  2010-01-26 18  2010-01-31 06  168  332  0584   0664    996   35  201011
1864  1012  2010-01-30 06  2010-02-07 00  107  313  1769W  1417W   937  115  OLI
1865  1013  2010-02-01 06  2010-02-03 06  195  211  0423   0497    985   50  FAMI
1866  1014  2010-02-06 18  2010-02-12 00  085  222  1666W  1589W   956   90  PAT
1867  1015  2010-02-09 06  2010-02-18 18  110  328  1754   1661W   948  100  RENE
1868  1016  2010-02-15 00  2010-02-22 12  103  212  0585   0623    929  125  GELANE
1869  1017  2010-02-21 00  2010-03-04 12  074  184  1657W  1582W   996   35  SARAH
1870  1018  2010-03-09 00  2010-03-11 18  192  212  0472   0510    985   50  HUBERT
1871  1019  2010-03-10 12  2010-03-17 18  097  314  1796W  1678W   937  115  TOMAS
1872  1020  2010-03-10 12  2010-03-22 00  127  219  1418   1680    918  140  ULUI
1873  1021  2010-03-21 06  2010-03-29 12  074  250  0830   0896    963   80  IMANI
1874  1022  2010-03-27 06  2010-03-31 00  119  138  1345   1366    970   70  PAUL
1875  1023  2010-04-01 06  2010-04-10 00  090  175  0793   0934    974   65  ROBYN
1876  1024  2010-04-20 00  2010-04-29 12  097  191  0869   1175    978   60  SEAN
1877  1101  2010-10-25 00  2010-10-31 06  092  149  0699   0870    996   35  201101
1878  1102  2010-10-29 06  2010-11-06 12  074  215  0888   0981    982   55  ANGGREK
1879  1103  2010-11-26 18  2010-12-04 12  069  231  0853   0944    963   80  ABELE
1880  1104  2010-12-23 12  2010-12-26 00  131  215  1425   1524    993   40  TASHA
1881  1105  2011-01-11 00  2011-01-15 18  179  279  1653   1698    982   55  VANIA
1882  1106  2011-01-10 06  2011-01-16 12  149  165  1075   1145    989   45  VINCE
1883  1107  2011-01-12 18  2011-01-18 00  124  362  1499   1702    952   95  ZELIA
1884  1108  2011-01-20 06  2011-01-28 18  117  368  1715   1709W   937  115  WILMA
1885  1109  2011-01-22 12  2011-01-31 00  151  224  1448   1609    982   55  ANTHONY
1886  1110  2011-01-24 06  2011-01-30 06  144  318  1079   1264    952   95  BIANCA
1887  1111  2011-01-29 00  2011-02-06 18  132  253  1298   1736    922  135  YASI
1888  1112  2011-02-03 06  2011-02-08 06  193  369  1796   1607W   989   45  YAKA
1889  1113  2011-02-08 12  2011-02-18 00  129  214  0437   0580    948  100  BINGIZA
1890  1114  2011-02-09 12  2011-02-13 12  171  221  0946   1132    996   35  201114
1891  1115  2011-02-14 06  2011-02-26 18  124  315  1039   1313    974   65  CARLOS
1892  1116  2011-02-14 18  2011-02-22 12  184  308  1020   1151    963   80  DIANNE
1893  1117  2011-02-17 00  2011-02-25 06  135  358  1689   1714W   937  115  ATU
1894  1118  2011-03-14 00  2011-03-23 00  113  276  0570   0877    989   45  CHERONO
1895  1119  2011-03-22 12  2011-03-29 00  172  327  1788   1756W   967   75  BUNE
1896  1120  2011-03-30 06  2011-04-04 06  106  162  1233   1323    996   35  201120
1897  1121  2011-04-13 06  2011-04-18 06  096  131  1238   1262    982   55  ERROL
1898  1201  2011-12-02 06  2011-12-09 12  061  214  0872   1029    952   95  ALENGA
1899  1202  2011-12-02 12  2011-12-11 18  121  169  0586   0705    996   35  201202
1900  1203  2011-12-24 06  2011-12-26 06  102  129  1322   1330    978   60  GRANT
1901  1204  2011-12-27 00  2012-01-05 06  092  241  0730   0951    956   90  BENILDE
1902  1205  2012-01-07 06  2012-01-09 12  176  222  0412   0444    996   35  CHANDA
1903  1206  2012-01-10 00  2012-01-13 06  145  250  1177   1195    974   65  HEIDI
1904  1207  2012-01-18 00  2012-01-23 12  123  332  0638   0718    970   70  ETHEL
1905  1208  2012-01-18 06  2012-01-29 00  167  321  0377   0447    937  115  FUNSO
1906  1209  2012-01-24 00  2012-02-03 00  157  300  1077   1154    970   70  IGGY
1907  1210  2012-02-02 18  2012-02-16 18  154  263  1462   1754W   937  115  JASMINE
1908  1211  2012-02-05 12  2012-02-08 12  170  308  1760   1541W   982   55  CYRIL
1909  1212  2012-02-08 12  2012-02-21 18  133  265  0409   0697    933  120  GIOVANNA
1910  1213  2012-02-11 06  2012-02-23 12  112  327  0637   1095    993   40  HILWA
1911  1214  2012-02-26 06  2012-03-10 12  125  307  0340   0514    978   60  IRINA
1912  1215  2012-02-28 12  2012-03-02 12  117  165  0636   0696    996   35  201215
1913  1216  2012-03-06 06  2012-03-12 18  121  304  0793   1000    967   75  KOJI-JONI
1914  1217  2012-03-11 06  2012-03-17 18  153  234  1126   1210    952   95  LUA
1915  1218  2012-04-01 00  2012-04-03 18  155  331  1661   1709W   982   55  DAPHNE
1916  1219  2012-05-06 00  2012-05-09 06  050  093  1264   1299   1000   30  201219
1917  1220  2012-06-03 12  2012-06-08 12  072  103  0545   0655    982   55  KUENA
1918  1221  2012-06-28 00  2012-06-30 18  100  117  1527   1550    996   35  201221
=============================================================================================          
   cyclone  start date     end date       latitude  longitude      min  max  cyclone
    number  yyyy-mm-dd hh  yyyy-mm-dd hh  min  max  min    max     hPa  kts  name               
                 

Document: summary_jtwc.html
Updated: 22 May 2013

[Australian Severe Weather index] [Copyright Notice] [Email Contacts] [Search This Site]